<?xml version="1.0" encoding="UTF-8" standalone="no" ?>
<gpx xmlns="http://www.topografix.com/GPX/1/1" xmlns:xsi="http://www.w3.org/2001/XMLSchema-instance" xsi:schemaLocation="http://www.topografix.com/GPX/1/1 http://www.topografix.com/GPX/1/1/gpx.xsd" version="1.1" creator="VisuGPX - https://www.visugpx.com">
  <metadata>
    <name>Maurens - Villamblard</name>
    <desc><![CDATA[Villamblard est le point de relais 2. Changement pour les relayeurs à 4 et les Relayeurs à 2. ]]></desc>
  </metadata>
  <trk>
    <name><![CDATA[Maps3D_TR-2013-06-04 am12-19]]></name>
    <trkseg>
      <trkpt lat="44.93322" lon="0.4847">
        <ele>122.710907</ele>
        <time>2013-06-04T12:26:13Z</time>
      </trkpt>
      <trkpt lat="44.93306" lon="0.48459">
        <ele>122.532486</ele>
        <time>2013-06-04T12:26:20Z</time>
      </trkpt>
      <trkpt lat="44.93315" lon="0.48458">
        <ele>122.321724</ele>
        <time>2013-06-04T12:26:26Z</time>
      </trkpt>
      <trkpt lat="44.93328" lon="0.48463">
        <ele>122.324837</ele>
        <time>2013-06-04T12:26:31Z</time>
      </trkpt>
      <trkpt lat="44.9335" lon="0.48471">
        <ele>122.143402</ele>
        <time>2013-06-04T12:26:37Z</time>
      </trkpt>
      <trkpt lat="44.9338" lon="0.48482">
        <ele>122.066719</ele>
        <time>2013-06-04T12:26:43Z</time>
      </trkpt>
      <trkpt lat="44.93404" lon="0.48492">
        <ele>122.446075</ele>
        <time>2013-06-04T12:26:49Z</time>
      </trkpt>
      <trkpt lat="44.93423" lon="0.48499">
        <ele>123.007523</ele>
        <time>2013-06-04T12:26:54Z</time>
      </trkpt>
      <trkpt lat="44.93435" lon="0.48501">
        <ele>123.456841</ele>
        <time>2013-06-04T12:26:59Z</time>
      </trkpt>
      <trkpt lat="44.9345" lon="0.48506">
        <ele>123.98201</ele>
        <time>2013-06-04T12:27:05Z</time>
      </trkpt>
      <trkpt lat="44.93467" lon="0.48517">
        <ele>124.677498</ele>
        <time>2013-06-04T12:27:10Z</time>
      </trkpt>
      <trkpt lat="44.93483" lon="0.48521">
        <ele>125.154182</ele>
        <time>2013-06-04T12:27:15Z</time>
      </trkpt>
      <trkpt lat="44.935" lon="0.48529">
        <ele>125.688538</ele>
        <time>2013-06-04T12:27:21Z</time>
      </trkpt>
      <trkpt lat="44.93515" lon="0.48548">
        <ele>125.781494</ele>
        <time>2013-06-04T12:27:27Z</time>
      </trkpt>
      <trkpt lat="44.9353" lon="0.48564">
        <ele>125.822632</ele>
        <time>2013-06-04T12:27:33Z</time>
      </trkpt>
      <trkpt lat="44.93535" lon="0.4858">
        <ele>126.05957</ele>
        <time>2013-06-04T12:27:39Z</time>
      </trkpt>
      <trkpt lat="44.93532" lon="0.48574">
        <ele>126.016235</ele>
        <time>2013-06-04T12:27:46Z</time>
      </trkpt>
      <trkpt lat="44.93537" lon="0.48574">
        <ele>125.904053</ele>
        <time>2013-06-04T12:34:05Z</time>
      </trkpt>
      <trkpt lat="44.93541" lon="0.48575">
        <ele>125.802246</ele>
        <time>2013-06-04T12:34:17Z</time>
      </trkpt>
      <trkpt lat="44.93553" lon="0.48588">
        <ele>125.8069</ele>
        <time>2013-06-04T12:34:23Z</time>
      </trkpt>
      <trkpt lat="44.93564" lon="0.48601">
        <ele>125.914368</ele>
        <time>2013-06-04T12:34:28Z</time>
      </trkpt>
      <trkpt lat="44.93582" lon="0.48621">
        <ele>126.342918</ele>
        <time>2013-06-04T12:34:34Z</time>
      </trkpt>
      <trkpt lat="44.936" lon="0.48637">
        <ele>126.72644</ele>
        <time>2013-06-04T12:34:39Z</time>
      </trkpt>
      <trkpt lat="44.93618" lon="0.48651">
        <ele>127.03479</ele>
        <time>2013-06-04T12:34:44Z</time>
      </trkpt>
      <trkpt lat="44.93638" lon="0.48664">
        <ele>127.260254</ele>
        <time>2013-06-04T12:34:50Z</time>
      </trkpt>
      <trkpt lat="44.93661" lon="0.48676">
        <ele>127.16777</ele>
        <time>2013-06-04T12:34:56Z</time>
      </trkpt>
      <trkpt lat="44.93681" lon="0.48695">
        <ele>126.734055</ele>
        <time>2013-06-04T12:35:01Z</time>
      </trkpt>
      <trkpt lat="44.93709" lon="0.48718">
        <ele>125.905472</ele>
        <time>2013-06-04T12:35:07Z</time>
      </trkpt>
      <trkpt lat="44.93733" lon="0.48736">
        <ele>125.311615</ele>
        <time>2013-06-04T12:35:12Z</time>
      </trkpt>
      <trkpt lat="44.93762" lon="0.4876">
        <ele>125.284225</ele>
        <time>2013-06-04T12:35:18Z</time>
      </trkpt>
      <trkpt lat="44.93791" lon="0.48783">
        <ele>126.297821</ele>
        <time>2013-06-04T12:35:24Z</time>
      </trkpt>
      <trkpt lat="44.93812" lon="0.48803">
        <ele>127.575638</ele>
        <time>2013-06-04T12:35:29Z</time>
      </trkpt>
      <trkpt lat="44.93836" lon="0.48801">
        <ele>127.677856</ele>
        <time>2013-06-04T12:35:34Z</time>
      </trkpt>
      <trkpt lat="44.93839" lon="0.48789">
        <ele>126.837769</ele>
        <time>2013-06-04T12:35:44Z</time>
      </trkpt>
      <trkpt lat="44.93847" lon="0.4879">
        <ele>126.894165</ele>
        <time>2013-06-04T12:35:50Z</time>
      </trkpt>
      <trkpt lat="44.93858" lon="0.48796">
        <ele>127.317139</ele>
        <time>2013-06-04T12:35:55Z</time>
      </trkpt>
      <trkpt lat="44.93873" lon="0.48801">
        <ele>127.703491</ele>
        <time>2013-06-04T12:36:01Z</time>
      </trkpt>
      <trkpt lat="44.9389" lon="0.48801">
        <ele>127.653687</ele>
        <time>2013-06-04T12:36:06Z</time>
      </trkpt>
      <trkpt lat="44.93911" lon="0.48802">
        <ele>127.759521</ele>
        <time>2013-06-04T12:36:11Z</time>
      </trkpt>
      <trkpt lat="44.93936" lon="0.48798">
        <ele>124.82193</ele>
        <time>2013-06-04T12:36:17Z</time>
      </trkpt>
      <trkpt lat="44.93955" lon="0.488">
        <ele>122.225098</ele>
        <time>2013-06-04T12:36:22Z</time>
      </trkpt>
      <trkpt lat="44.93974" lon="0.48816">
        <ele>120.674667</ele>
        <time>2013-06-04T12:36:28Z</time>
      </trkpt>
      <trkpt lat="44.94009" lon="0.48872">
        <ele>118.528519</ele>
        <time>2013-06-04T12:36:33Z</time>
      </trkpt>
      <trkpt lat="44.94051" lon="0.48919">
        <ele>112.870422</ele>
        <time>2013-06-04T12:36:38Z</time>
      </trkpt>
      <trkpt lat="44.94098" lon="0.48984">
        <ele>110.39299</ele>
        <time>2013-06-04T12:36:44Z</time>
      </trkpt>
      <trkpt lat="44.9414" lon="0.49019">
        <ele>108.062851</ele>
        <time>2013-06-04T12:36:50Z</time>
      </trkpt>
      <trkpt lat="44.94178" lon="0.49007">
        <ele>105.805801</ele>
        <time>2013-06-04T12:36:55Z</time>
      </trkpt>
      <trkpt lat="44.94189" lon="0.4901">
        <ele>107.233353</ele>
        <time>2013-06-04T12:37:01Z</time>
      </trkpt>
      <trkpt lat="44.94195" lon="0.49001">
        <ele>107.691147</ele>
        <time>2013-06-04T12:37:29Z</time>
      </trkpt>
      <trkpt lat="44.94202" lon="0.49003">
        <ele>108.703392</ele>
        <time>2013-06-04T12:37:34Z</time>
      </trkpt>
      <trkpt lat="44.94208" lon="0.49014">
        <ele>109.749649</ele>
        <time>2013-06-04T12:37:39Z</time>
      </trkpt>
      <trkpt lat="44.94222" lon="0.49017">
        <ele>111.427612</ele>
        <time>2013-06-04T12:37:45Z</time>
      </trkpt>
      <trkpt lat="44.94231" lon="0.49022">
        <ele>112.549126</ele>
        <time>2013-06-04T12:37:50Z</time>
      </trkpt>
      <trkpt lat="44.94235" lon="0.49029">
        <ele>113.016937</ele>
        <time>2013-06-04T12:37:55Z</time>
      </trkpt>
      <trkpt lat="44.94236" lon="0.49038">
        <ele>113.05307</ele>
        <time>2013-06-04T12:38:01Z</time>
      </trkpt>
      <trkpt lat="44.94235" lon="0.49049">
        <ele>112.955231</ele>
        <time>2013-06-04T12:38:06Z</time>
      </trkpt>
      <trkpt lat="44.94236" lon="0.49062">
        <ele>113.010704</ele>
        <time>2013-06-04T12:38:12Z</time>
      </trkpt>
      <trkpt lat="44.94236" lon="0.4908">
        <ele>112.980133</ele>
        <time>2013-06-04T12:38:18Z</time>
      </trkpt>
      <trkpt lat="44.94238" lon="0.49093">
        <ele>113.000328</ele>
        <time>2013-06-04T12:38:23Z</time>
      </trkpt>
      <trkpt lat="44.94244" lon="0.49107">
        <ele>113.114258</ele>
        <time>2013-06-04T12:38:28Z</time>
      </trkpt>
      <trkpt lat="44.94253" lon="0.49121">
        <ele>113.281837</ele>
        <time>2013-06-04T12:38:33Z</time>
      </trkpt>
      <trkpt lat="44.9426" lon="0.49126">
        <ele>113.705353</ele>
        <time>2013-06-04T12:38:39Z</time>
      </trkpt>
      <trkpt lat="44.94271" lon="0.49131">
        <ele>114.30558</ele>
        <time>2013-06-04T12:38:44Z</time>
      </trkpt>
      <trkpt lat="44.94286" lon="0.49132">
        <ele>115.229767</ele>
        <time>2013-06-04T12:38:49Z</time>
      </trkpt>
      <trkpt lat="44.94298" lon="0.49127">
        <ele>116.379456</ele>
        <time>2013-06-04T12:38:55Z</time>
      </trkpt>
      <trkpt lat="44.94307" lon="0.49117">
        <ele>117.706482</ele>
        <time>2013-06-04T12:39:01Z</time>
      </trkpt>
      <trkpt lat="44.94313" lon="0.49107">
        <ele>118.910278</ele>
        <time>2013-06-04T12:39:06Z</time>
      </trkpt>
      <trkpt lat="44.94321" lon="0.4909">
        <ele>121.053406</ele>
        <time>2013-06-04T12:39:12Z</time>
      </trkpt>
      <trkpt lat="44.94319" lon="0.49079">
        <ele>121.787422</ele>
        <time>2013-06-04T12:39:41Z</time>
      </trkpt>
      <trkpt lat="44.94319" lon="0.4907">
        <ele>122.225952</ele>
        <time>2013-06-04T12:39:46Z</time>
      </trkpt>
      <trkpt lat="44.94324" lon="0.4906">
        <ele>123.523643</ele>
        <time>2013-06-04T12:39:52Z</time>
      </trkpt>
      <trkpt lat="44.94331" lon="0.49052">
        <ele>125.006065</ele>
        <time>2013-06-04T12:39:57Z</time>
      </trkpt>
      <trkpt lat="44.94339" lon="0.49045">
        <ele>126.044998</ele>
        <time>2013-06-04T12:40:03Z</time>
      </trkpt>
      <trkpt lat="44.94352" lon="0.49048">
        <ele>126.47731</ele>
        <time>2013-06-04T12:40:09Z</time>
      </trkpt>
      <trkpt lat="44.94371" lon="0.4907">
        <ele>126.047668</ele>
        <time>2013-06-04T12:40:15Z</time>
      </trkpt>
      <trkpt lat="44.94387" lon="0.49093">
        <ele>125.247925</ele>
        <time>2013-06-04T12:40:21Z</time>
      </trkpt>
      <trkpt lat="44.94402" lon="0.49118">
        <ele>123.785767</ele>
        <time>2013-06-04T12:40:27Z</time>
      </trkpt>
      <trkpt lat="44.94418" lon="0.49119">
        <ele>124.605301</ele>
        <time>2013-06-04T12:40:33Z</time>
      </trkpt>
      <trkpt lat="44.94425" lon="0.49124">
        <ele>124.00901</ele>
        <time>2013-06-04T12:40:38Z</time>
      </trkpt>
      <trkpt lat="44.94428" lon="0.4915">
        <ele>121.697433</ele>
        <time>2013-06-04T12:40:44Z</time>
      </trkpt>
      <trkpt lat="44.94454" lon="0.49168">
        <ele>120.241333</ele>
        <time>2013-06-04T12:40:50Z</time>
      </trkpt>
      <trkpt lat="44.94486" lon="0.49169">
        <ele>120.610229</ele>
        <time>2013-06-04T12:40:56Z</time>
      </trkpt>
      <trkpt lat="44.94509" lon="0.49174">
        <ele>120.164673</ele>
        <time>2013-06-04T12:41:01Z</time>
      </trkpt>
      <trkpt lat="44.94522" lon="0.492">
        <ele>117.94722</ele>
        <time>2013-06-04T12:41:07Z</time>
      </trkpt>
      <trkpt lat="44.94522" lon="0.49235">
        <ele>114.759796</ele>
        <time>2013-06-04T12:41:13Z</time>
      </trkpt>
      <trkpt lat="44.94533" lon="0.49265">
        <ele>114.612305</ele>
        <time>2013-06-04T12:41:19Z</time>
      </trkpt>
      <trkpt lat="44.94549" lon="0.49286">
        <ele>116.278931</ele>
        <time>2013-06-04T12:41:24Z</time>
      </trkpt>
      <trkpt lat="44.94568" lon="0.49308">
        <ele>118.341064</ele>
        <time>2013-06-04T12:41:30Z</time>
      </trkpt>
      <trkpt lat="44.94584" lon="0.49331">
        <ele>120.043716</ele>
        <time>2013-06-04T12:41:36Z</time>
      </trkpt>
      <trkpt lat="44.94587" lon="0.49354">
        <ele>120.352219</ele>
        <time>2013-06-04T12:41:41Z</time>
      </trkpt>
      <trkpt lat="44.94576" lon="0.49372">
        <ele>119.434258</ele>
        <time>2013-06-04T12:41:46Z</time>
      </trkpt>
      <trkpt lat="44.9458" lon="0.49393">
        <ele>119.782272</ele>
        <time>2013-06-04T12:41:52Z</time>
      </trkpt>
      <trkpt lat="44.94588" lon="0.49412">
        <ele>120.385132</ele>
        <time>2013-06-04T12:41:57Z</time>
      </trkpt>
      <trkpt lat="44.94601" lon="0.49434">
        <ele>121.061478</ele>
        <time>2013-06-04T12:42:03Z</time>
      </trkpt>
      <trkpt lat="44.94618" lon="0.49442">
        <ele>122.079582</ele>
        <time>2013-06-04T12:42:08Z</time>
      </trkpt>
      <trkpt lat="44.94635" lon="0.4945">
        <ele>122.967758</ele>
        <time>2013-06-04T12:42:14Z</time>
      </trkpt>
      <trkpt lat="44.94648" lon="0.49457">
        <ele>123.476707</ele>
        <time>2013-06-04T12:42:19Z</time>
      </trkpt>
      <trkpt lat="44.94662" lon="0.49466">
        <ele>123.755341</ele>
        <time>2013-06-04T12:42:25Z</time>
      </trkpt>
      <trkpt lat="44.94675" lon="0.49472">
        <ele>124.303925</ele>
        <time>2013-06-04T12:42:31Z</time>
      </trkpt>
      <trkpt lat="44.94685" lon="0.49474">
        <ele>124.941803</ele>
        <time>2013-06-04T12:42:36Z</time>
      </trkpt>
      <trkpt lat="44.94692" lon="0.49482">
        <ele>124.966217</ele>
        <time>2013-06-04T12:42:42Z</time>
      </trkpt>
      <trkpt lat="44.94707" lon="0.49496">
        <ele>125.168381</ele>
        <time>2013-06-04T12:42:47Z</time>
      </trkpt>
      <trkpt lat="44.94725" lon="0.49505">
        <ele>126.051682</ele>
        <time>2013-06-04T12:42:52Z</time>
      </trkpt>
      <trkpt lat="44.94742" lon="0.49506">
        <ele>127.130898</ele>
        <time>2013-06-04T12:42:58Z</time>
      </trkpt>
      <trkpt lat="44.94751" lon="0.49508">
        <ele>127.591583</ele>
        <time>2013-06-04T12:43:03Z</time>
      </trkpt>
      <trkpt lat="44.94764" lon="0.49517">
        <ele>128.424118</ele>
        <time>2013-06-04T12:43:09Z</time>
      </trkpt>
      <trkpt lat="44.94778" lon="0.49529">
        <ele>129.051331</ele>
        <time>2013-06-04T12:43:15Z</time>
      </trkpt>
      <trkpt lat="44.94792" lon="0.49541">
        <ele>129.596527</ele>
        <time>2013-06-04T12:43:21Z</time>
      </trkpt>
      <trkpt lat="44.94813" lon="0.49562">
        <ele>129.982254</ele>
        <time>2013-06-04T12:43:27Z</time>
      </trkpt>
      <trkpt lat="44.94824" lon="0.49577">
        <ele>129.769714</ele>
        <time>2013-06-04T12:43:32Z</time>
      </trkpt>
      <trkpt lat="44.94833" lon="0.49592">
        <ele>129.540543</ele>
        <time>2013-06-04T12:43:38Z</time>
      </trkpt>
      <trkpt lat="44.94848" lon="0.49604">
        <ele>129.876465</ele>
        <time>2013-06-04T12:43:44Z</time>
      </trkpt>
      <trkpt lat="44.94867" lon="0.49616">
        <ele>130.427734</ele>
        <time>2013-06-04T12:43:50Z</time>
      </trkpt>
      <trkpt lat="44.94877" lon="0.4962">
        <ele>130.889648</ele>
        <time>2013-06-04T12:43:55Z</time>
      </trkpt>
      <trkpt lat="44.94888" lon="0.49624">
        <ele>131.33667</ele>
        <time>2013-06-04T12:44:00Z</time>
      </trkpt>
      <trkpt lat="44.94905" lon="0.49626">
        <ele>132.268311</ele>
        <time>2013-06-04T12:44:05Z</time>
      </trkpt>
      <trkpt lat="44.9492" lon="0.49628">
        <ele>132.717133</ele>
        <time>2013-06-04T12:44:11Z</time>
      </trkpt>
      <trkpt lat="44.94934" lon="0.49633">
        <ele>131.908875</ele>
        <time>2013-06-04T12:44:16Z</time>
      </trkpt>
      <trkpt lat="44.94955" lon="0.49642">
        <ele>130.681259</ele>
        <time>2013-06-04T12:44:22Z</time>
      </trkpt>
      <trkpt lat="44.94973" lon="0.49643">
        <ele>129.919556</ele>
        <time>2013-06-04T12:44:27Z</time>
      </trkpt>
      <trkpt lat="44.94993" lon="0.49646">
        <ele>129.022263</ele>
        <time>2013-06-04T12:44:33Z</time>
      </trkpt>
      <trkpt lat="44.95005" lon="0.49655">
        <ele>128.717896</ele>
        <time>2013-06-04T12:44:38Z</time>
      </trkpt>
      <trkpt lat="44.95022" lon="0.49658">
        <ele>129.605453</ele>
        <time>2013-06-04T12:44:44Z</time>
      </trkpt>
      <trkpt lat="44.9504" lon="0.49664">
        <ele>130.455902</ele>
        <time>2013-06-04T12:44:50Z</time>
      </trkpt>
      <trkpt lat="44.95056" lon="0.49679">
        <ele>131.538666</ele>
        <time>2013-06-04T12:44:56Z</time>
      </trkpt>
      <trkpt lat="44.95068" lon="0.49692">
        <ele>132.163193</ele>
        <time>2013-06-04T12:45:01Z</time>
      </trkpt>
      <trkpt lat="44.95086" lon="0.49706">
        <ele>132.762207</ele>
        <time>2013-06-04T12:45:07Z</time>
      </trkpt>
      <trkpt lat="44.951" lon="0.49722">
        <ele>133.58316</ele>
        <time>2013-06-04T12:45:12Z</time>
      </trkpt>
      <trkpt lat="44.95114" lon="0.49737">
        <ele>134.386459</ele>
        <time>2013-06-04T12:45:17Z</time>
      </trkpt>
      <trkpt lat="44.95128" lon="0.49758">
        <ele>135.115509</ele>
        <time>2013-06-04T12:45:23Z</time>
      </trkpt>
      <trkpt lat="44.95138" lon="0.49776">
        <ele>135.443146</ele>
        <time>2013-06-04T12:45:28Z</time>
      </trkpt>
      <trkpt lat="44.95151" lon="0.49795">
        <ele>135.417984</ele>
        <time>2013-06-04T12:45:34Z</time>
      </trkpt>
      <trkpt lat="44.95162" lon="0.49811">
        <ele>135.01149</ele>
        <time>2013-06-04T12:45:39Z</time>
      </trkpt>
      <trkpt lat="44.9517" lon="0.49828">
        <ele>134.387848</ele>
        <time>2013-06-04T12:45:45Z</time>
      </trkpt>
      <trkpt lat="44.95176" lon="0.49838">
        <ele>134.407944</ele>
        <time>2013-06-04T12:45:50Z</time>
      </trkpt>
      <trkpt lat="44.95185" lon="0.4986">
        <ele>134.955933</ele>
        <time>2013-06-04T12:45:56Z</time>
      </trkpt>
      <trkpt lat="44.95198" lon="0.49887">
        <ele>135.205582</ele>
        <time>2013-06-04T12:46:02Z</time>
      </trkpt>
      <trkpt lat="44.95213" lon="0.49907">
        <ele>134.977356</ele>
        <time>2013-06-04T12:46:07Z</time>
      </trkpt>
      <trkpt lat="44.95227" lon="0.49928">
        <ele>135.218384</ele>
        <time>2013-06-04T12:46:13Z</time>
      </trkpt>
      <trkpt lat="44.95229" lon="0.49946">
        <ele>136.246094</ele>
        <time>2013-06-04T12:46:19Z</time>
      </trkpt>
      <trkpt lat="44.95235" lon="0.49957">
        <ele>136.668488</ele>
        <time>2013-06-04T12:46:25Z</time>
      </trkpt>
      <trkpt lat="44.95238" lon="0.49964">
        <ele>136.888092</ele>
        <time>2013-06-04T12:46:47Z</time>
      </trkpt>
      <trkpt lat="44.95248" lon="0.49984">
        <ele>137.351517</ele>
        <time>2013-06-04T12:46:52Z</time>
      </trkpt>
      <trkpt lat="44.95259" lon="0.49999">
        <ele>138.057755</ele>
        <time>2013-06-04T12:46:57Z</time>
      </trkpt>
      <trkpt lat="44.95271" lon="0.50011">
        <ele>138.762817</ele>
        <time>2013-06-04T12:47:02Z</time>
      </trkpt>
      <trkpt lat="44.95291" lon="0.50021">
        <ele>139.482178</ele>
        <time>2013-06-04T12:47:08Z</time>
      </trkpt>
      <trkpt lat="44.95302" lon="0.5003">
        <ele>140.081055</ele>
        <time>2013-06-04T12:47:13Z</time>
      </trkpt>
      <trkpt lat="44.95328" lon="0.50026">
        <ele>140.191528</ele>
        <time>2013-06-04T12:47:18Z</time>
      </trkpt>
      <trkpt lat="44.9535" lon="0.50042">
        <ele>141.697296</ele>
        <time>2013-06-04T12:47:24Z</time>
      </trkpt>
      <trkpt lat="44.95359" lon="0.50064">
        <ele>142.882645</ele>
        <time>2013-06-04T12:47:30Z</time>
      </trkpt>
      <trkpt lat="44.95357" lon="0.50085">
        <ele>143.652328</ele>
        <time>2013-06-04T12:47:35Z</time>
      </trkpt>
      <trkpt lat="44.95362" lon="0.5011">
        <ele>145.145706</ele>
        <time>2013-06-04T12:47:41Z</time>
      </trkpt>
      <trkpt lat="44.95368" lon="0.50133">
        <ele>146.430603</ele>
        <time>2013-06-04T12:47:47Z</time>
      </trkpt>
      <trkpt lat="44.95375" lon="0.50155">
        <ele>147.439301</ele>
        <time>2013-06-04T12:47:52Z</time>
      </trkpt>
      <trkpt lat="44.95378" lon="0.5018">
        <ele>148.427277</ele>
        <time>2013-06-04T12:47:58Z</time>
      </trkpt>
      <trkpt lat="44.95377" lon="0.502">
        <ele>149.179718</ele>
        <time>2013-06-04T12:48:04Z</time>
      </trkpt>
      <trkpt lat="44.95372" lon="0.50219">
        <ele>149.907669</ele>
        <time>2013-06-04T12:48:10Z</time>
      </trkpt>
      <trkpt lat="44.95369" lon="0.50242">
        <ele>150.723389</ele>
        <time>2013-06-04T12:48:16Z</time>
      </trkpt>
      <trkpt lat="44.95366" lon="0.50265">
        <ele>151.882263</ele>
        <time>2013-06-04T12:48:22Z</time>
      </trkpt>
      <trkpt lat="44.95362" lon="0.50293">
        <ele>153.594299</ele>
        <time>2013-06-04T12:48:28Z</time>
      </trkpt>
      <trkpt lat="44.95363" lon="0.50318">
        <ele>155.051208</ele>
        <time>2013-06-04T12:48:33Z</time>
      </trkpt>
      <trkpt lat="44.95368" lon="0.50344">
        <ele>156</ele>
        <time>2013-06-04T12:48:39Z</time>
      </trkpt>
      <trkpt lat="44.9537" lon="0.50364">
        <ele>156</ele>
        <time>2013-06-04T12:48:44Z</time>
      </trkpt>
      <trkpt lat="44.95369" lon="0.50392">
        <ele>156</ele>
        <time>2013-06-04T12:48:49Z</time>
      </trkpt>
      <trkpt lat="44.9537" lon="0.50416">
        <ele>156</ele>
        <time>2013-06-04T12:48:55Z</time>
      </trkpt>
      <trkpt lat="44.95373" lon="0.50438">
        <ele>156.13562</ele>
        <time>2013-06-04T12:49:01Z</time>
      </trkpt>
      <trkpt lat="44.9538" lon="0.50468">
        <ele>156.269562</ele>
        <time>2013-06-04T12:49:07Z</time>
      </trkpt>
      <trkpt lat="44.95382" lon="0.50498">
        <ele>156.406281</ele>
        <time>2013-06-04T12:49:13Z</time>
      </trkpt>
      <trkpt lat="44.9538" lon="0.50526">
        <ele>157.0242</ele>
        <time>2013-06-04T12:49:19Z</time>
      </trkpt>
      <trkpt lat="44.95379" lon="0.50561">
        <ele>157.854553</ele>
        <time>2013-06-04T12:49:25Z</time>
      </trkpt>
      <trkpt lat="44.95367" lon="0.50597">
        <ele>159.096878</ele>
        <time>2013-06-04T12:49:31Z</time>
      </trkpt>
      <trkpt lat="44.95367" lon="0.5063">
        <ele>159.794708</ele>
        <time>2013-06-04T12:49:37Z</time>
      </trkpt>
      <trkpt lat="44.95363" lon="0.5066">
        <ele>160.493683</ele>
        <time>2013-06-04T12:49:43Z</time>
      </trkpt>
      <trkpt lat="44.95362" lon="0.50685">
        <ele>161.392365</ele>
        <time>2013-06-04T12:49:48Z</time>
      </trkpt>
      <trkpt lat="44.95353" lon="0.50711">
        <ele>162.494064</ele>
        <time>2013-06-04T12:49:54Z</time>
      </trkpt>
      <trkpt lat="44.95349" lon="0.50732">
        <ele>163.306519</ele>
        <time>2013-06-04T12:49:59Z</time>
      </trkpt>
      <trkpt lat="44.95351" lon="0.50756">
        <ele>164.027695</ele>
        <time>2013-06-04T12:50:04Z</time>
      </trkpt>
      <trkpt lat="44.9535" lon="0.5078">
        <ele>164.144547</ele>
        <time>2013-06-04T12:50:09Z</time>
      </trkpt>
      <trkpt lat="44.95346" lon="0.50818">
        <ele>164.247482</ele>
        <time>2013-06-04T12:50:15Z</time>
      </trkpt>
      <trkpt lat="44.95346" lon="0.50855">
        <ele>163.285675</ele>
        <time>2013-06-04T12:50:20Z</time>
      </trkpt>
      <trkpt lat="44.95349" lon="0.50905">
        <ele>161.109909</ele>
        <time>2013-06-04T12:50:26Z</time>
      </trkpt>
      <trkpt lat="44.95354" lon="0.50962">
        <ele>160.048279</ele>
        <time>2013-06-04T12:50:32Z</time>
      </trkpt>
      <trkpt lat="44.95354" lon="0.50997">
        <ele>159.545547</ele>
        <time>2013-06-04T12:50:37Z</time>
      </trkpt>
      <trkpt lat="44.95346" lon="0.51035">
        <ele>159.535538</ele>
        <time>2013-06-04T12:50:43Z</time>
      </trkpt>
      <trkpt lat="44.95346" lon="0.51069">
        <ele>159.750061</ele>
        <time>2013-06-04T12:50:48Z</time>
      </trkpt>
      <trkpt lat="44.95346" lon="0.51103">
        <ele>159.611694</ele>
        <time>2013-06-04T12:50:54Z</time>
      </trkpt>
      <trkpt lat="44.95344" lon="0.51141">
        <ele>159.177734</ele>
        <time>2013-06-04T12:51:00Z</time>
      </trkpt>
      <trkpt lat="44.95363" lon="0.51195">
        <ele>157.327179</ele>
        <time>2013-06-04T12:51:06Z</time>
      </trkpt>
      <trkpt lat="44.95376" lon="0.51228">
        <ele>155.938156</ele>
        <time>2013-06-04T12:51:11Z</time>
      </trkpt>
      <trkpt lat="44.95376" lon="0.5125">
        <ele>155.030853</ele>
        <time>2013-06-04T12:51:17Z</time>
      </trkpt>
      <trkpt lat="44.95377" lon="0.51259">
        <ele>154.945251</ele>
        <time>2013-06-04T12:51:46Z</time>
      </trkpt>
      <trkpt lat="44.95376" lon="0.51284">
        <ele>154.621521</ele>
        <time>2013-06-04T12:51:51Z</time>
      </trkpt>
      <trkpt lat="44.9537" lon="0.513">
        <ele>154.279602</ele>
        <time>2013-06-04T12:51:56Z</time>
      </trkpt>
      <trkpt lat="44.95362" lon="0.51322">
        <ele>153.828552</ele>
        <time>2013-06-04T12:52:02Z</time>
      </trkpt>
      <trkpt lat="44.95356" lon="0.51347">
        <ele>153.800079</ele>
        <time>2013-06-04T12:52:07Z</time>
      </trkpt>
      <trkpt lat="44.95347" lon="0.51377">
        <ele>154.454575</ele>
        <time>2013-06-04T12:52:13Z</time>
      </trkpt>
      <trkpt lat="44.95342" lon="0.51403">
        <ele>155.279755</ele>
        <time>2013-06-04T12:52:18Z</time>
      </trkpt>
      <trkpt lat="44.95335" lon="0.51439">
        <ele>155.668777</ele>
        <time>2013-06-04T12:52:24Z</time>
      </trkpt>
      <trkpt lat="44.95328" lon="0.51476">
        <ele>155.27536</ele>
        <time>2013-06-04T12:52:29Z</time>
      </trkpt>
      <trkpt lat="44.95325" lon="0.51529">
        <ele>154.104233</ele>
        <time>2013-06-04T12:52:35Z</time>
      </trkpt>
      <trkpt lat="44.95303" lon="0.51565">
        <ele>153.807083</ele>
        <time>2013-06-04T12:52:41Z</time>
      </trkpt>
      <trkpt lat="44.95292" lon="0.51612">
        <ele>153.838074</ele>
        <time>2013-06-04T12:52:47Z</time>
      </trkpt>
      <trkpt lat="44.95282" lon="0.51653">
        <ele>154.126953</ele>
        <time>2013-06-04T12:52:53Z</time>
      </trkpt>
      <trkpt lat="44.95275" lon="0.51684">
        <ele>154.082336</ele>
        <time>2013-06-04T12:52:59Z</time>
      </trkpt>
      <trkpt lat="44.95272" lon="0.51691">
        <ele>154.052063</ele>
        <time>2013-06-04T12:53:04Z</time>
      </trkpt>
      <trkpt lat="44.95276" lon="0.51698">
        <ele>153.67981</ele>
        <time>2013-06-04T12:53:31Z</time>
      </trkpt>
      <trkpt lat="44.9529" lon="0.51697">
        <ele>153.03363</ele>
        <time>2013-06-04T12:53:37Z</time>
      </trkpt>
      <trkpt lat="44.95321" lon="0.51713">
        <ele>151.505524</ele>
        <time>2013-06-04T12:53:43Z</time>
      </trkpt>
      <trkpt lat="44.95351" lon="0.51733">
        <ele>150.820984</ele>
        <time>2013-06-04T12:53:48Z</time>
      </trkpt>
      <trkpt lat="44.95381" lon="0.51756">
        <ele>151.105499</ele>
        <time>2013-06-04T12:53:54Z</time>
      </trkpt>
      <trkpt lat="44.95399" lon="0.51775">
        <ele>151.544739</ele>
        <time>2013-06-04T12:54:00Z</time>
      </trkpt>
      <trkpt lat="44.95413" lon="0.51795">
        <ele>152.062836</ele>
        <time>2013-06-04T12:54:05Z</time>
      </trkpt>
      <trkpt lat="44.95436" lon="0.51824">
        <ele>151.436996</ele>
        <time>2013-06-04T12:54:11Z</time>
      </trkpt>
      <trkpt lat="44.95459" lon="0.51839">
        <ele>150.121735</ele>
        <time>2013-06-04T12:54:17Z</time>
      </trkpt>
      <trkpt lat="44.95479" lon="0.51847">
        <ele>149.170135</ele>
        <time>2013-06-04T12:54:22Z</time>
      </trkpt>
      <trkpt lat="44.955" lon="0.51862">
        <ele>148.717239</ele>
        <time>2013-06-04T12:54:28Z</time>
      </trkpt>
      <trkpt lat="44.95519" lon="0.51883">
        <ele>146.885361</ele>
        <time>2013-06-04T12:54:33Z</time>
      </trkpt>
      <trkpt lat="44.95537" lon="0.51914">
        <ele>144.780533</ele>
        <time>2013-06-04T12:54:39Z</time>
      </trkpt>
      <trkpt lat="44.95541" lon="0.51968">
        <ele>143.311111</ele>
        <time>2013-06-04T12:54:44Z</time>
      </trkpt>
      <trkpt lat="44.95542" lon="0.52044">
        <ele>140.364868</ele>
        <time>2013-06-04T12:54:50Z</time>
      </trkpt>
      <trkpt lat="44.95521" lon="0.52105">
        <ele>140.844254</ele>
        <time>2013-06-04T12:54:56Z</time>
      </trkpt>
      <trkpt lat="44.95496" lon="0.5214">
        <ele>139.501923</ele>
        <time>2013-06-04T12:55:01Z</time>
      </trkpt>
      <trkpt lat="44.95468" lon="0.52178">
        <ele>134.164215</ele>
        <time>2013-06-04T12:55:06Z</time>
      </trkpt>
      <trkpt lat="44.95438" lon="0.52215">
        <ele>130.854004</ele>
        <time>2013-06-04T12:55:11Z</time>
      </trkpt>
      <trkpt lat="44.95428" lon="0.52247">
        <ele>127.96067</ele>
        <time>2013-06-04T12:55:17Z</time>
      </trkpt>
      <trkpt lat="44.95413" lon="0.52273">
        <ele>127.307907</ele>
        <time>2013-06-04T12:55:22Z</time>
      </trkpt>
      <trkpt lat="44.95386" lon="0.52294">
        <ele>127.335419</ele>
        <time>2013-06-04T12:55:28Z</time>
      </trkpt>
      <trkpt lat="44.95367" lon="0.52324">
        <ele>126.5811</ele>
        <time>2013-06-04T12:55:33Z</time>
      </trkpt>
      <trkpt lat="44.95342" lon="0.52349">
        <ele>126.456017</ele>
        <time>2013-06-04T12:55:39Z</time>
      </trkpt>
      <trkpt lat="44.95321" lon="0.52371">
        <ele>127.391319</ele>
        <time>2013-06-04T12:55:45Z</time>
      </trkpt>
      <trkpt lat="44.95305" lon="0.5239">
        <ele>128.847183</ele>
        <time>2013-06-04T12:55:50Z</time>
      </trkpt>
      <trkpt lat="44.9529" lon="0.5241">
        <ele>130.330902</ele>
        <time>2013-06-04T12:55:55Z</time>
      </trkpt>
      <trkpt lat="44.95278" lon="0.52429">
        <ele>131.176208</ele>
        <time>2013-06-04T12:56:01Z</time>
      </trkpt>
      <trkpt lat="44.95269" lon="0.52448">
        <ele>131.535004</ele>
        <time>2013-06-04T12:56:06Z</time>
      </trkpt>
      <trkpt lat="44.95259" lon="0.52477">
        <ele>131.721298</ele>
        <time>2013-06-04T12:56:12Z</time>
      </trkpt>
      <trkpt lat="44.95247" lon="0.52511">
        <ele>131.844788</ele>
        <time>2013-06-04T12:56:17Z</time>
      </trkpt>
      <trkpt lat="44.95237" lon="0.52537">
        <ele>131.790833</ele>
        <time>2013-06-04T12:56:23Z</time>
      </trkpt>
      <trkpt lat="44.9523" lon="0.52541">
        <ele>132.197571</ele>
        <time>2013-06-04T12:56:28Z</time>
      </trkpt>
      <trkpt lat="44.95214" lon="0.5254">
        <ele>133.602173</ele>
        <time>2013-06-04T12:56:34Z</time>
      </trkpt>
      <trkpt lat="44.95216" lon="0.52562">
        <ele>132.653503</ele>
        <time>2013-06-04T12:57:13Z</time>
      </trkpt>
      <trkpt lat="44.95217" lon="0.52632">
        <ele>129.41687</ele>
        <time>2013-06-04T12:57:19Z</time>
      </trkpt>
      <trkpt lat="44.95217" lon="0.5268">
        <ele>127.391861</ele>
        <time>2013-06-04T12:57:24Z</time>
      </trkpt>
      <trkpt lat="44.95216" lon="0.52712">
        <ele>126.435135</ele>
        <time>2013-06-04T12:57:29Z</time>
      </trkpt>
      <trkpt lat="44.95232" lon="0.52752">
        <ele>123.598846</ele>
        <time>2013-06-04T12:57:34Z</time>
      </trkpt>
      <trkpt lat="44.95275" lon="0.52782">
        <ele>121.1875</ele>
        <time>2013-06-04T12:57:40Z</time>
      </trkpt>
      <trkpt lat="44.95308" lon="0.52831">
        <ele>121.127319</ele>
        <time>2013-06-04T12:57:45Z</time>
      </trkpt>
      <trkpt lat="44.95329" lon="0.52881">
        <ele>120.712769</ele>
        <time>2013-06-04T12:57:51Z</time>
      </trkpt>
      <trkpt lat="44.95345" lon="0.52904">
        <ele>121.43383</ele>
        <time>2013-06-04T12:57:56Z</time>
      </trkpt>
      <trkpt lat="44.95349" lon="0.52908">
        <ele>121.700882</ele>
        <time>2013-06-04T12:58:02Z</time>
      </trkpt>
      <trkpt lat="44.95387" lon="0.5292">
        <ele>124.476799</ele>
        <time>2013-06-04T12:58:08Z</time>
      </trkpt>
      <trkpt lat="44.95402" lon="0.52922">
        <ele>125.617249</ele>
        <time>2013-06-04T12:58:13Z</time>
      </trkpt>
      <trkpt lat="44.95421" lon="0.52925">
        <ele>126.938759</ele>
        <time>2013-06-04T12:58:19Z</time>
      </trkpt>
      <trkpt lat="44.95439" lon="0.52928">
        <ele>127.889793</ele>
        <time>2013-06-04T12:58:24Z</time>
      </trkpt>
      <trkpt lat="44.95459" lon="0.52931">
        <ele>128.943924</ele>
        <time>2013-06-04T12:58:30Z</time>
      </trkpt>
      <trkpt lat="44.9548" lon="0.52934">
        <ele>130.020569</ele>
        <time>2013-06-04T12:58:35Z</time>
      </trkpt>
      <trkpt lat="44.95503" lon="0.52935">
        <ele>131.157837</ele>
        <time>2013-06-04T12:58:41Z</time>
      </trkpt>
      <trkpt lat="44.95521" lon="0.52935">
        <ele>131.446976</ele>
        <time>2013-06-04T12:58:46Z</time>
      </trkpt>
      <trkpt lat="44.95538" lon="0.52934">
        <ele>131.704575</ele>
        <time>2013-06-04T12:58:51Z</time>
      </trkpt>
      <trkpt lat="44.95559" lon="0.52935">
        <ele>131.97319</ele>
        <time>2013-06-04T12:58:57Z</time>
      </trkpt>
      <trkpt lat="44.9558" lon="0.52936">
        <ele>132.252563</ele>
        <time>2013-06-04T12:59:02Z</time>
      </trkpt>
      <trkpt lat="44.956" lon="0.52932">
        <ele>132.403931</ele>
        <time>2013-06-04T12:59:07Z</time>
      </trkpt>
      <trkpt lat="44.95612" lon="0.52927">
        <ele>132.452438</ele>
        <time>2013-06-04T12:59:12Z</time>
      </trkpt>
      <trkpt lat="44.95622" lon="0.52923">
        <ele>132.449203</ele>
        <time>2013-06-04T12:59:18Z</time>
      </trkpt>
      <trkpt lat="44.95631" lon="0.52919">
        <ele>132.410583</ele>
        <time>2013-06-04T12:59:24Z</time>
      </trkpt>
      <trkpt lat="44.95648" lon="0.52913">
        <ele>132.743607</ele>
        <time>2013-06-04T12:59:29Z</time>
      </trkpt>
      <trkpt lat="44.95673" lon="0.52905">
        <ele>133.72963</ele>
        <time>2013-06-04T12:59:35Z</time>
      </trkpt>
      <trkpt lat="44.95696" lon="0.52898">
        <ele>135.264801</ele>
        <time>2013-06-04T12:59:41Z</time>
      </trkpt>
      <trkpt lat="44.95714" lon="0.52892">
        <ele>136.449097</ele>
        <time>2013-06-04T12:59:46Z</time>
      </trkpt>
      <trkpt lat="44.95733" lon="0.52884">
        <ele>137.801514</ele>
        <time>2013-06-04T12:59:51Z</time>
      </trkpt>
      <trkpt lat="44.95755" lon="0.52872">
        <ele>139.681046</ele>
        <time>2013-06-04T12:59:57Z</time>
      </trkpt>
      <trkpt lat="44.95777" lon="0.52861">
        <ele>141.94931</ele>
        <time>2013-06-04T13:00:03Z</time>
      </trkpt>
      <trkpt lat="44.95796" lon="0.52852">
        <ele>143.404648</ele>
        <time>2013-06-04T13:00:09Z</time>
      </trkpt>
      <trkpt lat="44.95816" lon="0.52845">
        <ele>144.474762</ele>
        <time>2013-06-04T13:00:14Z</time>
      </trkpt>
      <trkpt lat="44.95836" lon="0.52836">
        <ele>145.350891</ele>
        <time>2013-06-04T13:00:20Z</time>
      </trkpt>
      <trkpt lat="44.95843" lon="0.52829">
        <ele>146.353867</ele>
        <time>2013-06-04T13:00:26Z</time>
      </trkpt>
      <trkpt lat="44.95865" lon="0.5282">
        <ele>149.078949</ele>
        <time>2013-06-04T13:00:34Z</time>
      </trkpt>
      <trkpt lat="44.95875" lon="0.52813">
        <ele>150.345795</ele>
        <time>2013-06-04T13:00:39Z</time>
      </trkpt>
      <trkpt lat="44.95886" lon="0.52808">
        <ele>151.571411</ele>
        <time>2013-06-04T13:00:45Z</time>
      </trkpt>
      <trkpt lat="44.95896" lon="0.52805">
        <ele>152.561157</ele>
        <time>2013-06-04T13:00:57Z</time>
      </trkpt>
      <trkpt lat="44.95911" lon="0.52802">
        <ele>153.910324</ele>
        <time>2013-06-04T13:01:03Z</time>
      </trkpt>
      <trkpt lat="44.95924" lon="0.52795">
        <ele>154.828003</ele>
        <time>2013-06-04T13:01:09Z</time>
      </trkpt>
      <trkpt lat="44.9594" lon="0.52791">
        <ele>155.628845</ele>
        <time>2013-06-04T13:01:15Z</time>
      </trkpt>
      <trkpt lat="44.95956" lon="0.52793">
        <ele>156.385864</ele>
        <time>2013-06-04T13:01:20Z</time>
      </trkpt>
      <trkpt lat="44.9597" lon="0.52799">
        <ele>156.975647</ele>
        <time>2013-06-04T13:01:25Z</time>
      </trkpt>
      <trkpt lat="44.95984" lon="0.52808">
        <ele>157.533203</ele>
        <time>2013-06-04T13:01:31Z</time>
      </trkpt>
      <trkpt lat="44.95995" lon="0.52817">
        <ele>157.950562</ele>
        <time>2013-06-04T13:01:37Z</time>
      </trkpt>
      <trkpt lat="44.96006" lon="0.52824">
        <ele>158.200699</ele>
        <time>2013-06-04T13:01:43Z</time>
      </trkpt>
      <trkpt lat="44.96012" lon="0.52824">
        <ele>158.296188</ele>
        <time>2013-06-04T13:01:59Z</time>
      </trkpt>
      <trkpt lat="44.96017" lon="0.52819">
        <ele>158.495758</ele>
        <time>2013-06-04T13:02:05Z</time>
      </trkpt>
      <trkpt lat="44.96032" lon="0.52823">
        <ele>158.661407</ele>
        <time>2013-06-04T13:02:11Z</time>
      </trkpt>
      <trkpt lat="44.96048" lon="0.52824">
        <ele>158.878387</ele>
        <time>2013-06-04T13:02:16Z</time>
      </trkpt>
      <trkpt lat="44.96066" lon="0.52828">
        <ele>159.016907</ele>
        <time>2013-06-04T13:02:22Z</time>
      </trkpt>
      <trkpt lat="44.96081" lon="0.52829">
        <ele>159.196198</ele>
        <time>2013-06-04T13:02:28Z</time>
      </trkpt>
      <trkpt lat="44.96094" lon="0.52826">
        <ele>159.463867</ele>
        <time>2013-06-04T13:02:33Z</time>
      </trkpt>
      <trkpt lat="44.96102" lon="0.52828">
        <ele>159.491455</ele>
        <time>2013-06-04T13:02:38Z</time>
      </trkpt>
      <trkpt lat="44.96114" lon="0.52831">
        <ele>159.494873</ele>
        <time>2013-06-04T13:02:44Z</time>
      </trkpt>
      <trkpt lat="44.96126" lon="0.52836">
        <ele>159.708435</ele>
        <time>2013-06-04T13:02:49Z</time>
      </trkpt>
      <trkpt lat="44.96141" lon="0.52836">
        <ele>159.922806</ele>
        <time>2013-06-04T13:02:55Z</time>
      </trkpt>
      <trkpt lat="44.96151" lon="0.52838">
        <ele>160.19809</ele>
        <time>2013-06-04T13:03:00Z</time>
      </trkpt>
      <trkpt lat="44.96156" lon="0.52843">
        <ele>160.653564</ele>
        <time>2013-06-04T13:03:05Z</time>
      </trkpt>
      <trkpt lat="44.96162" lon="0.52847">
        <ele>161.102463</ele>
        <time>2013-06-04T13:03:10Z</time>
      </trkpt>
      <trkpt lat="44.96171" lon="0.52852">
        <ele>161.859634</ele>
        <time>2013-06-04T13:03:15Z</time>
      </trkpt>
      <trkpt lat="44.96177" lon="0.52857">
        <ele>162.674774</ele>
        <time>2013-06-04T13:03:21Z</time>
      </trkpt>
      <trkpt lat="44.9619" lon="0.52867">
        <ele>164.166412</ele>
        <time>2013-06-04T13:03:26Z</time>
      </trkpt>
      <trkpt lat="44.96207" lon="0.52875">
        <ele>165.707809</ele>
        <time>2013-06-04T13:03:32Z</time>
      </trkpt>
      <trkpt lat="44.9622" lon="0.52879">
        <ele>166.588104</ele>
        <time>2013-06-04T13:03:38Z</time>
      </trkpt>
      <trkpt lat="44.96235" lon="0.52881">
        <ele>167.376984</ele>
        <time>2013-06-04T13:03:43Z</time>
      </trkpt>
      <trkpt lat="44.96254" lon="0.52882">
        <ele>168.464401</ele>
        <time>2013-06-04T13:03:49Z</time>
      </trkpt>
      <trkpt lat="44.96263" lon="0.52883">
        <ele>169.218185</ele>
        <time>2013-06-04T13:03:54Z</time>
      </trkpt>
      <trkpt lat="44.96276" lon="0.52889">
        <ele>170.444916</ele>
        <time>2013-06-04T13:04:00Z</time>
      </trkpt>
      <trkpt lat="44.96292" lon="0.52891">
        <ele>171.798798</ele>
        <time>2013-06-04T13:04:06Z</time>
      </trkpt>
      <trkpt lat="44.96309" lon="0.52888">
        <ele>172.995453</ele>
        <time>2013-06-04T13:04:12Z</time>
      </trkpt>
      <trkpt lat="44.96317" lon="0.52886">
        <ele>173.618912</ele>
        <time>2013-06-04T13:04:18Z</time>
      </trkpt>
      <trkpt lat="44.96327" lon="0.52883">
        <ele>174.300583</ele>
        <time>2013-06-04T13:04:24Z</time>
      </trkpt>
      <trkpt lat="44.96338" lon="0.52882">
        <ele>174.965591</ele>
        <time>2013-06-04T13:04:30Z</time>
      </trkpt>
      <trkpt lat="44.96345" lon="0.52878">
        <ele>175.148453</ele>
        <time>2013-06-04T13:04:36Z</time>
      </trkpt>
      <trkpt lat="44.96341" lon="0.52873">
        <ele>174.795502</ele>
        <time>2013-06-04T13:04:44Z</time>
      </trkpt>
      <trkpt lat="44.96346" lon="0.5287">
        <ele>174.901337</ele>
        <time>2013-06-04T13:04:53Z</time>
      </trkpt>
      <trkpt lat="44.96356" lon="0.52871">
        <ele>175.409943</ele>
        <time>2013-06-04T13:04:58Z</time>
      </trkpt>
      <trkpt lat="44.96366" lon="0.52872">
        <ele>175.922882</ele>
        <time>2013-06-04T13:05:03Z</time>
      </trkpt>
      <trkpt lat="44.96374" lon="0.52872">
        <ele>176.327026</ele>
        <time>2013-06-04T13:05:09Z</time>
      </trkpt>
      <trkpt lat="44.96385" lon="0.52874">
        <ele>176.878937</ele>
        <time>2013-06-04T13:05:14Z</time>
      </trkpt>
      <trkpt lat="44.96397" lon="0.52878">
        <ele>177.742935</ele>
        <time>2013-06-04T13:05:20Z</time>
      </trkpt>
      <trkpt lat="44.96407" lon="0.52882">
        <ele>178.430664</ele>
        <time>2013-06-04T13:05:26Z</time>
      </trkpt>
      <trkpt lat="44.96417" lon="0.52881">
        <ele>178.864304</ele>
        <time>2013-06-04T13:05:32Z</time>
      </trkpt>
      <trkpt lat="44.96431" lon="0.52871">
        <ele>178.634659</ele>
        <time>2013-06-04T13:05:38Z</time>
      </trkpt>
      <trkpt lat="44.96441" lon="0.52873">
        <ele>178.983978</ele>
        <time>2013-06-04T13:05:43Z</time>
      </trkpt>
      <trkpt lat="44.96447" lon="0.52881">
        <ele>179.477936</ele>
        <time>2013-06-04T13:05:49Z</time>
      </trkpt>
      <trkpt lat="44.96455" lon="0.52883">
        <ele>179.707382</ele>
        <time>2013-06-04T13:05:55Z</time>
      </trkpt>
      <trkpt lat="44.96462" lon="0.52887">
        <ele>180.000397</ele>
        <time>2013-06-04T13:06:01Z</time>
      </trkpt>
      <trkpt lat="44.96469" lon="0.52891">
        <ele>180.236053</ele>
        <time>2013-06-04T13:06:07Z</time>
      </trkpt>
      <trkpt lat="44.96478" lon="0.52896">
        <ele>180.483276</ele>
        <time>2013-06-04T13:06:12Z</time>
      </trkpt>
      <trkpt lat="44.96494" lon="0.52911">
        <ele>180.904633</ele>
        <time>2013-06-04T13:06:18Z</time>
      </trkpt>
      <trkpt lat="44.96502" lon="0.52926">
        <ele>181.205475</ele>
        <time>2013-06-04T13:06:23Z</time>
      </trkpt>
      <trkpt lat="44.9651" lon="0.5294">
        <ele>181.406128</ele>
        <time>2013-06-04T13:06:28Z</time>
      </trkpt>
      <trkpt lat="44.96517" lon="0.52955">
        <ele>181.609818</ele>
        <time>2013-06-04T13:06:34Z</time>
      </trkpt>
      <trkpt lat="44.9652" lon="0.52972">
        <ele>181.933014</ele>
        <time>2013-06-04T13:06:39Z</time>
      </trkpt>
      <trkpt lat="44.96528" lon="0.52996">
        <ele>182.234772</ele>
        <time>2013-06-04T13:06:45Z</time>
      </trkpt>
      <trkpt lat="44.96548" lon="0.53015">
        <ele>182.254883</ele>
        <time>2013-06-04T13:06:50Z</time>
      </trkpt>
      <trkpt lat="44.96562" lon="0.53036">
        <ele>182.278183</ele>
        <time>2013-06-04T13:06:56Z</time>
      </trkpt>
      <trkpt lat="44.96574" lon="0.53052">
        <ele>182.040894</ele>
        <time>2013-06-04T13:07:01Z</time>
      </trkpt>
      <trkpt lat="44.96583" lon="0.5307">
        <ele>181.847641</ele>
        <time>2013-06-04T13:07:06Z</time>
      </trkpt>
      <trkpt lat="44.96592" lon="0.53092">
        <ele>182.123459</ele>
        <time>2013-06-04T13:07:12Z</time>
      </trkpt>
      <trkpt lat="44.96595" lon="0.53114">
        <ele>183.111542</ele>
        <time>2013-06-04T13:07:17Z</time>
      </trkpt>
      <trkpt lat="44.96596" lon="0.53137">
        <ele>184.21991</ele>
        <time>2013-06-04T13:07:23Z</time>
      </trkpt>
      <trkpt lat="44.96599" lon="0.5316">
        <ele>185.284271</ele>
        <time>2013-06-04T13:07:29Z</time>
      </trkpt>
      <trkpt lat="44.96602" lon="0.53176">
        <ele>185.937363</ele>
        <time>2013-06-04T13:07:35Z</time>
      </trkpt>
      <trkpt lat="44.96602" lon="0.53187">
        <ele>186.398331</ele>
        <time>2013-06-04T13:07:41Z</time>
      </trkpt>
      <trkpt lat="44.96604" lon="0.53206">
        <ele>187.150574</ele>
        <time>2013-06-04T13:07:47Z</time>
      </trkpt>
      <trkpt lat="44.96608" lon="0.53225">
        <ele>187.934448</ele>
        <time>2013-06-04T13:07:53Z</time>
      </trkpt>
      <trkpt lat="44.96615" lon="0.53241">
        <ele>188.612473</ele>
        <time>2013-06-04T13:07:58Z</time>
      </trkpt>
      <trkpt lat="44.96614" lon="0.53267">
        <ele>188.623871</ele>
        <time>2013-06-04T13:08:04Z</time>
      </trkpt>
      <trkpt lat="44.96613" lon="0.53285">
        <ele>188.190125</ele>
        <time>2013-06-04T13:08:10Z</time>
      </trkpt>
      <trkpt lat="44.96618" lon="0.53297">
        <ele>188.008636</ele>
        <time>2013-06-04T13:08:17Z</time>
      </trkpt>
      <trkpt lat="44.9662" lon="0.53302">
        <ele>187.949097</ele>
        <time>2013-06-04T13:09:16Z</time>
      </trkpt>
      <trkpt lat="44.96625" lon="0.5331">
        <ele>187.934387</ele>
        <time>2013-06-04T13:09:21Z</time>
      </trkpt>
      <trkpt lat="44.96639" lon="0.5332">
        <ele>188.14502</ele>
        <time>2013-06-04T13:09:26Z</time>
      </trkpt>
      <trkpt lat="44.9665" lon="0.53336">
        <ele>188.316681</ele>
        <time>2013-06-04T13:09:31Z</time>
      </trkpt>
      <trkpt lat="44.96662" lon="0.53366">
        <ele>187.629181</ele>
        <time>2013-06-04T13:09:37Z</time>
      </trkpt>
      <trkpt lat="44.96672" lon="0.53394">
        <ele>187.052979</ele>
        <time>2013-06-04T13:09:43Z</time>
      </trkpt>
      <trkpt lat="44.96688" lon="0.53427">
        <ele>187.3564</ele>
        <time>2013-06-04T13:09:48Z</time>
      </trkpt>
      <trkpt lat="44.96699" lon="0.53465">
        <ele>188.2948</ele>
        <time>2013-06-04T13:09:53Z</time>
      </trkpt>
      <trkpt lat="44.96712" lon="0.53508">
        <ele>189.298248</ele>
        <time>2013-06-04T13:09:59Z</time>
      </trkpt>
      <trkpt lat="44.96713" lon="0.5355">
        <ele>190.040253</ele>
        <time>2013-06-04T13:10:05Z</time>
      </trkpt>
      <trkpt lat="44.96719" lon="0.53573">
        <ele>190.481308</ele>
        <time>2013-06-04T13:10:10Z</time>
      </trkpt>
      <trkpt lat="44.96717" lon="0.53584">
        <ele>190.600281</ele>
        <time>2013-06-04T13:10:15Z</time>
      </trkpt>
      <trkpt lat="44.96717" lon="0.53595">
        <ele>190.550888</ele>
        <time>2013-06-04T13:10:20Z</time>
      </trkpt>
      <trkpt lat="44.96719" lon="0.53589">
        <ele>190.601562</ele>
        <time>2013-06-04T13:10:33Z</time>
      </trkpt>
      <trkpt lat="44.96722" lon="0.53594">
        <ele>190.620178</ele>
        <time>2013-06-04T13:10:42Z</time>
      </trkpt>
      <trkpt lat="44.96728" lon="0.53622">
        <ele>190.608566</ele>
        <time>2013-06-04T13:10:48Z</time>
      </trkpt>
      <trkpt lat="44.96726" lon="0.53656">
        <ele>190.471085</ele>
        <time>2013-06-04T13:10:53Z</time>
      </trkpt>
      <trkpt lat="44.96725" lon="0.53688">
        <ele>189.738373</ele>
        <time>2013-06-04T13:10:58Z</time>
      </trkpt>
      <trkpt lat="44.96718" lon="0.53717">
        <ele>188.555786</ele>
        <time>2013-06-04T13:11:03Z</time>
      </trkpt>
      <trkpt lat="44.96711" lon="0.5375">
        <ele>187.1091</ele>
        <time>2013-06-04T13:11:09Z</time>
      </trkpt>
      <trkpt lat="44.96706" lon="0.53786">
        <ele>186.942871</ele>
        <time>2013-06-04T13:11:14Z</time>
      </trkpt>
      <trkpt lat="44.967" lon="0.53827">
        <ele>186.968124</ele>
        <time>2013-06-04T13:11:20Z</time>
      </trkpt>
      <trkpt lat="44.96697" lon="0.53868">
        <ele>186.142822</ele>
        <time>2013-06-04T13:11:26Z</time>
      </trkpt>
      <trkpt lat="44.96693" lon="0.53902">
        <ele>185.388214</ele>
        <time>2013-06-04T13:11:31Z</time>
      </trkpt>
      <trkpt lat="44.96694" lon="0.53955">
        <ele>185.15239</ele>
        <time>2013-06-04T13:11:37Z</time>
      </trkpt>
      <trkpt lat="44.967" lon="0.53993">
        <ele>185.159332</ele>
        <time>2013-06-04T13:11:42Z</time>
      </trkpt>
      <trkpt lat="44.96711" lon="0.54044">
        <ele>187.061584</ele>
        <time>2013-06-04T13:11:48Z</time>
      </trkpt>
      <trkpt lat="44.96719" lon="0.54082">
        <ele>188.915451</ele>
        <time>2013-06-04T13:11:54Z</time>
      </trkpt>
      <trkpt lat="44.96725" lon="0.54113">
        <ele>190.118713</ele>
        <time>2013-06-04T13:12:00Z</time>
      </trkpt>
      <trkpt lat="44.96731" lon="0.54151">
        <ele>191.688004</ele>
        <time>2013-06-04T13:12:06Z</time>
      </trkpt>
      <trkpt lat="44.96741" lon="0.54185">
        <ele>192.172928</ele>
        <time>2013-06-04T13:12:12Z</time>
      </trkpt>
      <trkpt lat="44.9675" lon="0.54222">
        <ele>191.67424</ele>
        <time>2013-06-04T13:12:17Z</time>
      </trkpt>
      <trkpt lat="44.96765" lon="0.54255">
        <ele>191.783325</ele>
        <time>2013-06-04T13:12:23Z</time>
      </trkpt>
      <trkpt lat="44.9678" lon="0.54286">
        <ele>191.932983</ele>
        <time>2013-06-04T13:12:29Z</time>
      </trkpt>
      <trkpt lat="44.96792" lon="0.54322">
        <ele>191.797852</ele>
        <time>2013-06-04T13:12:34Z</time>
      </trkpt>
      <trkpt lat="44.96799" lon="0.54357">
        <ele>191.081421</ele>
        <time>2013-06-04T13:12:39Z</time>
      </trkpt>
      <trkpt lat="44.96802" lon="0.54392">
        <ele>190.006409</ele>
        <time>2013-06-04T13:12:45Z</time>
      </trkpt>
      <trkpt lat="44.9681" lon="0.54404">
        <ele>190.019714</ele>
        <time>2013-06-04T13:12:51Z</time>
      </trkpt>
      <trkpt lat="44.96814" lon="0.54407">
        <ele>190.159851</ele>
        <time>2013-06-04T13:12:57Z</time>
      </trkpt>
      <trkpt lat="44.96819" lon="0.5441">
        <ele>190.408569</ele>
        <time>2013-06-04T13:13:03Z</time>
      </trkpt>
      <trkpt lat="44.96824" lon="0.54416">
        <ele>190.477295</ele>
        <time>2013-06-04T13:13:43Z</time>
      </trkpt>
      <trkpt lat="44.96844" lon="0.54431">
        <ele>189.243851</ele>
        <time>2013-06-04T13:13:48Z</time>
      </trkpt>
      <trkpt lat="44.96878" lon="0.54442">
        <ele>186.148315</ele>
        <time>2013-06-04T13:13:54Z</time>
      </trkpt>
      <trkpt lat="44.9691" lon="0.54461">
        <ele>183.943771</ele>
        <time>2013-06-04T13:13:59Z</time>
      </trkpt>
      <trkpt lat="44.9694" lon="0.54483">
        <ele>182.583908</ele>
        <time>2013-06-04T13:14:05Z</time>
      </trkpt>
      <trkpt lat="44.96967" lon="0.54502">
        <ele>182.138626</ele>
        <time>2013-06-04T13:14:10Z</time>
      </trkpt>
      <trkpt lat="44.96993" lon="0.54521">
        <ele>180.928238</ele>
        <time>2013-06-04T13:14:16Z</time>
      </trkpt>
      <trkpt lat="44.97019" lon="0.54539">
        <ele>179.265884</ele>
        <time>2013-06-04T13:14:22Z</time>
      </trkpt>
      <trkpt lat="44.97051" lon="0.54558">
        <ele>177.072311</ele>
        <time>2013-06-04T13:14:28Z</time>
      </trkpt>
      <trkpt lat="44.97095" lon="0.54582">
        <ele>173.84198</ele>
        <time>2013-06-04T13:14:34Z</time>
      </trkpt>
      <trkpt lat="44.97132" lon="0.54599">
        <ele>168.938416</ele>
        <time>2013-06-04T13:14:39Z</time>
      </trkpt>
      <trkpt lat="44.9716" lon="0.5461">
        <ele>165.654419</ele>
        <time>2013-06-04T13:14:45Z</time>
      </trkpt>
      <trkpt lat="44.97168" lon="0.54568">
        <ele>165.786346</ele>
        <time>2013-06-04T13:14:50Z</time>
      </trkpt>
      <trkpt lat="44.97199" lon="0.54568">
        <ele>163.697479</ele>
        <time>2013-06-04T13:14:56Z</time>
      </trkpt>
      <trkpt lat="44.97225" lon="0.54584">
        <ele>163.491913</ele>
        <time>2013-06-04T13:15:02Z</time>
      </trkpt>
      <trkpt lat="44.97258" lon="0.54599">
        <ele>161.401154</ele>
        <time>2013-06-04T13:15:08Z</time>
      </trkpt>
      <trkpt lat="44.97281" lon="0.54623">
        <ele>160.29184</ele>
        <time>2013-06-04T13:15:13Z</time>
      </trkpt>
      <trkpt lat="44.97294" lon="0.54647">
        <ele>160.305313</ele>
        <time>2013-06-04T13:15:18Z</time>
      </trkpt>
      <trkpt lat="44.9732" lon="0.5466">
        <ele>159.979675</ele>
        <time>2013-06-04T13:15:23Z</time>
      </trkpt>
      <trkpt lat="44.97346" lon="0.54667">
        <ele>159.104401</ele>
        <time>2013-06-04T13:15:28Z</time>
      </trkpt>
      <trkpt lat="44.9737" lon="0.54673">
        <ele>157.117615</ele>
        <time>2013-06-04T13:15:33Z</time>
      </trkpt>
      <trkpt lat="44.97396" lon="0.54685">
        <ele>155.025467</ele>
        <time>2013-06-04T13:15:39Z</time>
      </trkpt>
      <trkpt lat="44.97419" lon="0.54692">
        <ele>153.505524</ele>
        <time>2013-06-04T13:15:44Z</time>
      </trkpt>
      <trkpt lat="44.97447" lon="0.547">
        <ele>151.30275</ele>
        <time>2013-06-04T13:15:50Z</time>
      </trkpt>
      <trkpt lat="44.97478" lon="0.54711">
        <ele>149.595688</ele>
        <time>2013-06-04T13:15:56Z</time>
      </trkpt>
      <trkpt lat="44.97509" lon="0.54709">
        <ele>146.918823</ele>
        <time>2013-06-04T13:16:01Z</time>
      </trkpt>
      <trkpt lat="44.97547" lon="0.5471">
        <ele>141.898438</ele>
        <time>2013-06-04T13:16:07Z</time>
      </trkpt>
      <trkpt lat="44.97584" lon="0.54737">
        <ele>139.633255</ele>
        <time>2013-06-04T13:16:13Z</time>
      </trkpt>
      <trkpt lat="44.97617" lon="0.54764">
        <ele>135.445007</ele>
        <time>2013-06-04T13:16:18Z</time>
      </trkpt>
      <trkpt lat="44.97645" lon="0.54778">
        <ele>131.248596</ele>
        <time>2013-06-04T13:16:23Z</time>
      </trkpt>
      <trkpt lat="44.9768" lon="0.54752">
        <ele>126.904465</ele>
        <time>2013-06-04T13:16:29Z</time>
      </trkpt>
      <trkpt lat="44.97701" lon="0.54708">
        <ele>127.597778</ele>
        <time>2013-06-04T13:16:35Z</time>
      </trkpt>
      <trkpt lat="44.97713" lon="0.5468">
        <ele>128.126465</ele>
        <time>2013-06-04T13:16:40Z</time>
      </trkpt>
      <trkpt lat="44.97735" lon="0.54671">
        <ele>128.085449</ele>
        <time>2013-06-04T13:16:46Z</time>
      </trkpt>
      <trkpt lat="44.97758" lon="0.54658">
        <ele>128.817398</ele>
        <time>2013-06-04T13:16:52Z</time>
      </trkpt>
      <trkpt lat="44.97777" lon="0.54649">
        <ele>129.61557</ele>
        <time>2013-06-04T13:16:57Z</time>
      </trkpt>
      <trkpt lat="44.978" lon="0.54644">
        <ele>130.113892</ele>
        <time>2013-06-04T13:17:03Z</time>
      </trkpt>
      <trkpt lat="44.97821" lon="0.54649">
        <ele>129.409195</ele>
        <time>2013-06-04T13:17:09Z</time>
      </trkpt>
      <trkpt lat="44.97845" lon="0.54655">
        <ele>128.680054</ele>
        <time>2013-06-04T13:17:15Z</time>
      </trkpt>
      <trkpt lat="44.97865" lon="0.54664">
        <ele>127.770691</ele>
        <time>2013-06-04T13:17:21Z</time>
      </trkpt>
      <trkpt lat="44.97882" lon="0.54658">
        <ele>128.866226</ele>
        <time>2013-06-04T13:17:26Z</time>
      </trkpt>
      <trkpt lat="44.97902" lon="0.54648">
        <ele>130.811371</ele>
        <time>2013-06-04T13:17:32Z</time>
      </trkpt>
      <trkpt lat="44.9792" lon="0.54653">
        <ele>130.521149</ele>
        <time>2013-06-04T13:17:38Z</time>
      </trkpt>
      <trkpt lat="44.97934" lon="0.54657">
        <ele>130.687119</ele>
        <time>2013-06-04T13:17:43Z</time>
      </trkpt>
      <trkpt lat="44.97955" lon="0.5467">
        <ele>130.442871</ele>
        <time>2013-06-04T13:17:49Z</time>
      </trkpt>
      <trkpt lat="44.97969" lon="0.54687">
        <ele>129.754807</ele>
        <time>2013-06-04T13:17:54Z</time>
      </trkpt>
      <trkpt lat="44.97969" lon="0.54721">
        <ele>126.212036</ele>
        <time>2013-06-04T13:17:59Z</time>
      </trkpt>
      <trkpt lat="44.97995" lon="0.54727">
        <ele>126.569183</ele>
        <time>2013-06-04T13:18:05Z</time>
      </trkpt>
      <trkpt lat="44.98017" lon="0.5473">
        <ele>126.103485</ele>
        <time>2013-06-04T13:18:10Z</time>
      </trkpt>
      <trkpt lat="44.98039" lon="0.54736">
        <ele>125.126175</ele>
        <time>2013-06-04T13:18:16Z</time>
      </trkpt>
      <trkpt lat="44.98046" lon="0.54742">
        <ele>124.337791</ele>
        <time>2013-06-04T13:18:22Z</time>
      </trkpt>
      <trkpt lat="44.98043" lon="0.54755">
        <ele>123.459038</ele>
        <time>2013-06-04T13:18:27Z</time>
      </trkpt>
      <trkpt lat="44.98036" lon="0.54788">
        <ele>123.373573</ele>
        <time>2013-06-04T13:18:33Z</time>
      </trkpt>
      <trkpt lat="44.98029" lon="0.54813">
        <ele>123.391296</ele>
        <time>2013-06-04T13:18:38Z</time>
      </trkpt>
      <trkpt lat="44.98026" lon="0.54843">
        <ele>123.559616</ele>
        <time>2013-06-04T13:18:43Z</time>
      </trkpt>
      <trkpt lat="44.98036" lon="0.54864">
        <ele>123.710602</ele>
        <time>2013-06-04T13:18:49Z</time>
      </trkpt>
      <trkpt lat="44.98047" lon="0.54874">
        <ele>123.567062</ele>
        <time>2013-06-04T13:18:55Z</time>
      </trkpt>
      <trkpt lat="44.98057" lon="0.54883">
        <ele>123.394585</ele>
        <time>2013-06-04T13:19:00Z</time>
      </trkpt>
      <trkpt lat="44.9808" lon="0.54889">
        <ele>122.78141</ele>
        <time>2013-06-04T13:19:05Z</time>
      </trkpt>
      <trkpt lat="44.98105" lon="0.54894">
        <ele>123.208145</ele>
        <time>2013-06-04T13:19:11Z</time>
      </trkpt>
      <trkpt lat="44.98132" lon="0.54896">
        <ele>123.89505</ele>
        <time>2013-06-04T13:19:17Z</time>
      </trkpt>
      <trkpt lat="44.98149" lon="0.549">
        <ele>124.554741</ele>
        <time>2013-06-04T13:19:22Z</time>
      </trkpt>
      <trkpt lat="44.98169" lon="0.54907">
        <ele>125.481148</ele>
        <time>2013-06-04T13:19:28Z</time>
      </trkpt>
      <trkpt lat="44.98188" lon="0.54899">
        <ele>125.506607</ele>
        <time>2013-06-04T13:19:33Z</time>
      </trkpt>
      <trkpt lat="44.98186" lon="0.54891">
        <ele>124.840652</ele>
        <time>2013-06-04T13:19:42Z</time>
      </trkpt>
      <trkpt lat="44.98188" lon="0.54884">
        <ele>124.413254</ele>
        <time>2013-06-04T13:20:04Z</time>
      </trkpt>
      <trkpt lat="44.98212" lon="0.54882">
        <ele>124.622559</ele>
        <time>2013-06-04T13:20:10Z</time>
      </trkpt>
      <trkpt lat="44.98238" lon="0.54885">
        <ele>125.360031</ele>
        <time>2013-06-04T13:20:16Z</time>
      </trkpt>
      <trkpt lat="44.98254" lon="0.54886">
        <ele>125.710144</ele>
        <time>2013-06-04T13:20:21Z</time>
      </trkpt>
      <trkpt lat="44.9827" lon="0.5488">
        <ele>125.302048</ele>
        <time>2013-06-04T13:20:27Z</time>
      </trkpt>
      <trkpt lat="44.98288" lon="0.54875">
        <ele>124.994125</ele>
        <time>2013-06-04T13:20:33Z</time>
      </trkpt>
      <trkpt lat="44.98303" lon="0.54873">
        <ele>124.834747</ele>
        <time>2013-06-04T13:20:38Z</time>
      </trkpt>
      <trkpt lat="44.98329" lon="0.54866">
        <ele>124.012733</ele>
        <time>2013-06-04T13:20:43Z</time>
      </trkpt>
      <trkpt lat="44.98369" lon="0.54852">
        <ele>121.053909</ele>
        <time>2013-06-04T13:20:49Z</time>
      </trkpt>
      <trkpt lat="44.98403" lon="0.54852">
        <ele>120.333099</ele>
        <time>2013-06-04T13:20:55Z</time>
      </trkpt>
      <trkpt lat="44.98421" lon="0.54854">
        <ele>119.945427</ele>
        <time>2013-06-04T13:21:01Z</time>
      </trkpt>
      <trkpt lat="44.98444" lon="0.54863">
        <ele>119.355362</ele>
        <time>2013-06-04T13:21:06Z</time>
      </trkpt>
      <trkpt lat="44.98464" lon="0.54879">
        <ele>119.459068</ele>
        <time>2013-06-04T13:21:12Z</time>
      </trkpt>
      <trkpt lat="44.98487" lon="0.54893">
        <ele>119.020256</ele>
        <time>2013-06-04T13:21:18Z</time>
      </trkpt>
      <trkpt lat="44.98505" lon="0.54903">
        <ele>118.682083</ele>
        <time>2013-06-04T13:21:23Z</time>
      </trkpt>
      <trkpt lat="44.98523" lon="0.54915">
        <ele>119.058044</ele>
        <time>2013-06-04T13:21:28Z</time>
      </trkpt>
      <trkpt lat="44.98544" lon="0.54923">
        <ele>119.426178</ele>
        <time>2013-06-04T13:21:34Z</time>
      </trkpt>
      <trkpt lat="44.98561" lon="0.54929">
        <ele>119.554779</ele>
        <time>2013-06-04T13:21:40Z</time>
      </trkpt>
      <trkpt lat="44.98579" lon="0.54934">
        <ele>119.54232</ele>
        <time>2013-06-04T13:21:45Z</time>
      </trkpt>
      <trkpt lat="44.98597" lon="0.54937">
        <ele>119.622437</ele>
        <time>2013-06-04T13:21:50Z</time>
      </trkpt>
      <trkpt lat="44.98618" lon="0.5494">
        <ele>120.103149</ele>
        <time>2013-06-04T13:21:56Z</time>
      </trkpt>
      <trkpt lat="44.98635" lon="0.54939">
        <ele>119.950073</ele>
        <time>2013-06-04T13:22:01Z</time>
      </trkpt>
      <trkpt lat="44.98653" lon="0.54936">
        <ele>119.531799</ele>
        <time>2013-06-04T13:22:07Z</time>
      </trkpt>
      <trkpt lat="44.98678" lon="0.54927">
        <ele>117.664429</ele>
        <time>2013-06-04T13:22:13Z</time>
      </trkpt>
      <trkpt lat="44.98694" lon="0.54922">
        <ele>115.921631</ele>
        <time>2013-06-04T13:22:18Z</time>
      </trkpt>
      <trkpt lat="44.98711" lon="0.54922">
        <ele>115.00502</ele>
        <time>2013-06-04T13:22:24Z</time>
      </trkpt>
      <trkpt lat="44.98726" lon="0.54918">
        <ele>113.580597</ele>
        <time>2013-06-04T13:22:30Z</time>
      </trkpt>
      <trkpt lat="44.98734" lon="0.54917">
        <ele>112.985168</ele>
        <time>2013-06-04T13:22:35Z</time>
      </trkpt>
      <trkpt lat="44.98734" lon="0.54895">
        <ele>112.292068</ele>
        <time>2013-06-04T13:22:41Z</time>
      </trkpt>
      <trkpt lat="44.98729" lon="0.54877">
        <ele>111.942932</ele>
        <time>2013-06-04T13:22:46Z</time>
      </trkpt>
      <trkpt lat="44.98726" lon="0.54853">
        <ele>111.258438</ele>
        <time>2013-06-04T13:22:52Z</time>
      </trkpt>
      <trkpt lat="44.98723" lon="0.54831">
        <ele>110.698563</ele>
        <time>2013-06-04T13:22:58Z</time>
      </trkpt>
      <trkpt lat="44.98726" lon="0.54824">
        <ele>110.759232</ele>
        <time>2013-06-04T13:23:06Z</time>
      </trkpt>
      <trkpt lat="44.98719" lon="0.54804">
        <ele>111.380486</ele>
        <time>2013-06-04T13:23:11Z</time>
      </trkpt>
      <trkpt lat="44.98709" lon="0.54767">
        <ele>112.544365</ele>
        <time>2013-06-04T13:23:17Z</time>
      </trkpt>
      <trkpt lat="44.98712" lon="0.54742">
        <ele>113.902283</ele>
        <time>2013-06-04T13:23:22Z</time>
      </trkpt>
      <trkpt lat="44.98725" lon="0.54723">
        <ele>115.740265</ele>
        <time>2013-06-04T13:23:28Z</time>
      </trkpt>
      <trkpt lat="44.98738" lon="0.54703">
        <ele>117.703964</ele>
        <time>2013-06-04T13:23:34Z</time>
      </trkpt>
      <trkpt lat="44.98753" lon="0.54693">
        <ele>118.245087</ele>
        <time>2013-06-04T13:23:39Z</time>
      </trkpt>
      <trkpt lat="44.98767" lon="0.54673">
        <ele>119.004959</ele>
        <time>2013-06-04T13:23:45Z</time>
      </trkpt>
      <trkpt lat="44.98784" lon="0.54647">
        <ele>118.887093</ele>
        <time>2013-06-04T13:23:51Z</time>
      </trkpt>
      <trkpt lat="44.98799" lon="0.54622">
        <ele>117.755692</ele>
        <time>2013-06-04T13:23:56Z</time>
      </trkpt>
      <trkpt lat="44.98818" lon="0.54593">
        <ele>114.40464</ele>
        <time>2013-06-04T13:24:02Z</time>
      </trkpt>
      <trkpt lat="44.98837" lon="0.54566">
        <ele>111.760849</ele>
        <time>2013-06-04T13:24:07Z</time>
      </trkpt>
      <trkpt lat="44.98853" lon="0.5454">
        <ele>112.825531</ele>
        <time>2013-06-04T13:24:13Z</time>
      </trkpt>
      <trkpt lat="44.98869" lon="0.54486">
        <ele>114.01825</ele>
        <time>2013-06-04T13:24:18Z</time>
      </trkpt>
      <trkpt lat="44.98889" lon="0.54437">
        <ele>112.551262</ele>
        <time>2013-06-04T13:24:24Z</time>
      </trkpt>
      <trkpt lat="44.989" lon="0.54426">
        <ele>111.145828</ele>
        <time>2013-06-04T13:24:29Z</time>
      </trkpt>
      <trkpt lat="44.98906" lon="0.54366">
        <ele>113.163834</ele>
        <time>2013-06-04T13:24:34Z</time>
      </trkpt>
      <trkpt lat="44.98913" lon="0.54331">
        <ele>113.765602</ele>
        <time>2013-06-04T13:24:40Z</time>
      </trkpt>
      <trkpt lat="44.98917" lon="0.5431">
        <ele>113.841484</ele>
        <time>2013-06-04T13:24:46Z</time>
      </trkpt>
      <trkpt lat="44.9892" lon="0.54292">
        <ele>114.146667</ele>
        <time>2013-06-04T13:24:51Z</time>
      </trkpt>
      <trkpt lat="44.98924" lon="0.54275">
        <ele>114.403664</ele>
        <time>2013-06-04T13:24:57Z</time>
      </trkpt>
      <trkpt lat="44.98925" lon="0.54267">
        <ele>114.507263</ele>
        <time>2013-06-04T13:25:20Z</time>
      </trkpt>
      <trkpt lat="44.98927" lon="0.54258">
        <ele>114.612221</ele>
        <time>2013-06-04T13:25:25Z</time>
      </trkpt>
      <trkpt lat="44.98932" lon="0.54239">
        <ele>114.38501</ele>
        <time>2013-06-04T13:25:31Z</time>
      </trkpt>
      <trkpt lat="44.98938" lon="0.54218">
        <ele>113.754395</ele>
        <time>2013-06-04T13:25:36Z</time>
      </trkpt>
      <trkpt lat="44.98943" lon="0.54195">
        <ele>113.13147</ele>
        <time>2013-06-04T13:25:41Z</time>
      </trkpt>
      <trkpt lat="44.9895" lon="0.5417">
        <ele>112.452515</ele>
        <time>2013-06-04T13:25:47Z</time>
      </trkpt>
      <trkpt lat="44.98955" lon="0.5415">
        <ele>111.147865</ele>
        <time>2013-06-04T13:25:52Z</time>
      </trkpt>
      <trkpt lat="44.98959" lon="0.54132">
        <ele>110.00753</ele>
        <time>2013-06-04T13:25:57Z</time>
      </trkpt>
      <trkpt lat="44.98966" lon="0.54089">
        <ele>107.711517</ele>
        <time>2013-06-04T13:26:06Z</time>
      </trkpt>
      <trkpt lat="44.98965" lon="0.54063">
        <ele>108.036377</ele>
        <time>2013-06-04T13:26:11Z</time>
      </trkpt>
      <trkpt lat="44.98971" lon="0.54032">
        <ele>108.327393</ele>
        <time>2013-06-04T13:26:17Z</time>
      </trkpt>
      <trkpt lat="44.98984" lon="0.54003">
        <ele>108.110596</ele>
        <time>2013-06-04T13:26:23Z</time>
      </trkpt>
      <trkpt lat="44.98993" lon="0.53971">
        <ele>108.936737</ele>
        <time>2013-06-04T13:26:29Z</time>
      </trkpt>
      <trkpt lat="44.98997" lon="0.53942">
        <ele>110.021698</ele>
        <time>2013-06-04T13:26:35Z</time>
      </trkpt>
      <trkpt lat="44.99004" lon="0.53921">
        <ele>110.395584</ele>
        <time>2013-06-04T13:26:40Z</time>
      </trkpt>
      <trkpt lat="44.99009" lon="0.53896">
        <ele>111.12896</ele>
        <time>2013-06-04T13:26:46Z</time>
      </trkpt>
      <trkpt lat="44.99012" lon="0.53878">
        <ele>111.616135</ele>
        <time>2013-06-04T13:26:52Z</time>
      </trkpt>
      <trkpt lat="44.99019" lon="0.53865">
        <ele>111.275726</ele>
        <time>2013-06-04T13:26:58Z</time>
      </trkpt>
      <trkpt lat="44.99024" lon="0.53841">
        <ele>111.658714</ele>
        <time>2013-06-04T13:27:03Z</time>
      </trkpt>
      <trkpt lat="44.99029" lon="0.53818">
        <ele>111.164124</ele>
        <time>2013-06-04T13:27:08Z</time>
      </trkpt>
      <trkpt lat="44.99032" lon="0.53788">
        <ele>110.89473</ele>
        <time>2013-06-04T13:27:14Z</time>
      </trkpt>
      <trkpt lat="44.99035" lon="0.53745">
        <ele>110.576416</ele>
        <time>2013-06-04T13:27:20Z</time>
      </trkpt>
      <trkpt lat="44.99043" lon="0.53713">
        <ele>109.52681</ele>
        <time>2013-06-04T13:27:26Z</time>
      </trkpt>
      <trkpt lat="44.99048" lon="0.53697">
        <ele>109.069298</ele>
        <time>2013-06-04T13:27:31Z</time>
      </trkpt>
      <trkpt lat="44.99057" lon="0.53674">
        <ele>108.449814</ele>
        <time>2013-06-04T13:27:37Z</time>
      </trkpt>
      <trkpt lat="44.99061" lon="0.53653">
        <ele>108.64621</ele>
        <time>2013-06-04T13:27:43Z</time>
      </trkpt>
      <trkpt lat="44.99066" lon="0.53635">
        <ele>108.915642</ele>
        <time>2013-06-04T13:27:48Z</time>
      </trkpt>
      <trkpt lat="44.99072" lon="0.5361">
        <ele>109.270065</ele>
        <time>2013-06-04T13:27:54Z</time>
      </trkpt>
      <trkpt lat="44.99073" lon="0.53589">
        <ele>109.892021</ele>
        <time>2013-06-04T13:28:00Z</time>
      </trkpt>
      <trkpt lat="44.99072" lon="0.53581">
        <ele>110.27298</ele>
        <time>2013-06-04T13:28:05Z</time>
      </trkpt>
      <trkpt lat="44.99073" lon="0.53571">
        <ele>110.420433</ele>
        <time>2013-06-04T13:28:32Z</time>
      </trkpt>
      <trkpt lat="44.99078" lon="0.53543">
        <ele>110.262718</ele>
        <time>2013-06-04T13:28:37Z</time>
      </trkpt>
      <trkpt lat="44.99087" lon="0.53513">
        <ele>109.551636</ele>
        <time>2013-06-04T13:28:43Z</time>
      </trkpt>
      <trkpt lat="44.99097" lon="0.53478">
        <ele>110.756073</ele>
        <time>2013-06-04T13:28:49Z</time>
      </trkpt>
      <trkpt lat="44.99101" lon="0.53442">
        <ele>113.295929</ele>
        <time>2013-06-04T13:28:55Z</time>
      </trkpt>
      <trkpt lat="44.99116" lon="0.53413">
        <ele>113.021561</ele>
        <time>2013-06-04T13:29:01Z</time>
      </trkpt>
      <trkpt lat="44.9913" lon="0.53387">
        <ele>112.50544</ele>
        <time>2013-06-04T13:29:06Z</time>
      </trkpt>
      <trkpt lat="44.99134" lon="0.5336">
        <ele>113.487885</ele>
        <time>2013-06-04T13:29:11Z</time>
      </trkpt>
      <trkpt lat="44.99137" lon="0.53331">
        <ele>114.935715</ele>
        <time>2013-06-04T13:29:17Z</time>
      </trkpt>
      <trkpt lat="44.99143" lon="0.53306">
        <ele>114.078682</ele>
        <time>2013-06-04T13:29:22Z</time>
      </trkpt>
      <trkpt lat="44.99148" lon="0.53274">
        <ele>113.379807</ele>
        <time>2013-06-04T13:29:28Z</time>
      </trkpt>
      <trkpt lat="44.99152" lon="0.53242">
        <ele>113.344955</ele>
        <time>2013-06-04T13:29:34Z</time>
      </trkpt>
      <trkpt lat="44.99162" lon="0.53213">
        <ele>112.000061</ele>
        <time>2013-06-04T13:29:40Z</time>
      </trkpt>
      <trkpt lat="44.9917" lon="0.53182">
        <ele>111.759552</ele>
        <time>2013-06-04T13:29:46Z</time>
      </trkpt>
      <trkpt lat="44.99175" lon="0.53156">
        <ele>112.068268</ele>
        <time>2013-06-04T13:29:51Z</time>
      </trkpt>
      <trkpt lat="44.99179" lon="0.53133">
        <ele>112.231842</ele>
        <time>2013-06-04T13:29:56Z</time>
      </trkpt>
      <trkpt lat="44.9918" lon="0.53108">
        <ele>112.734802</ele>
        <time>2013-06-04T13:30:01Z</time>
      </trkpt>
      <trkpt lat="44.99183" lon="0.53076">
        <ele>113.15551</ele>
        <time>2013-06-04T13:30:07Z</time>
      </trkpt>
      <trkpt lat="44.99187" lon="0.53049">
        <ele>112.758652</ele>
        <time>2013-06-04T13:30:12Z</time>
      </trkpt>
      <trkpt lat="44.99192" lon="0.53024">
        <ele>112.300674</ele>
        <time>2013-06-04T13:30:17Z</time>
      </trkpt>
      <trkpt lat="44.99198" lon="0.5299">
        <ele>111.779358</ele>
        <time>2013-06-04T13:30:23Z</time>
      </trkpt>
      <trkpt lat="44.99208" lon="0.52958">
        <ele>110.007385</ele>
        <time>2013-06-04T13:30:29Z</time>
      </trkpt>
      <trkpt lat="44.99211" lon="0.52921">
        <ele>109.15509</ele>
        <time>2013-06-04T13:30:34Z</time>
      </trkpt>
      <trkpt lat="44.99223" lon="0.52876">
        <ele>105.654236</ele>
        <time>2013-06-04T13:30:39Z</time>
      </trkpt>
      <trkpt lat="44.99233" lon="0.52813">
        <ele>103.264069</ele>
        <time>2013-06-04T13:30:44Z</time>
      </trkpt>
      <trkpt lat="44.99252" lon="0.52765">
        <ele>102.935905</ele>
        <time>2013-06-04T13:30:49Z</time>
      </trkpt>
      <trkpt lat="44.99267" lon="0.52732">
        <ele>102.834351</ele>
        <time>2013-06-04T13:30:55Z</time>
      </trkpt>
      <trkpt lat="44.99274" lon="0.52726">
        <ele>102.710815</ele>
        <time>2013-06-04T13:31:06Z</time>
      </trkpt>
      <trkpt lat="44.99279" lon="0.52726">
        <ele>102.537598</ele>
        <time>2013-06-04T13:31:15Z</time>
      </trkpt>
      <trkpt lat="44.99293" lon="0.52727">
        <ele>102.004761</ele>
        <time>2013-06-04T13:31:20Z</time>
      </trkpt>
      <trkpt lat="44.99312" lon="0.52729">
        <ele>101.284912</ele>
        <time>2013-06-04T13:31:26Z</time>
      </trkpt>
      <trkpt lat="44.99326" lon="0.52729">
        <ele>100.792847</ele>
        <time>2013-06-04T13:31:31Z</time>
      </trkpt>
      <trkpt lat="44.99343" lon="0.52735">
        <ele>100.092789</ele>
        <time>2013-06-04T13:31:37Z</time>
      </trkpt>
      <trkpt lat="44.99358" lon="0.52745">
        <ele>99.503456</ele>
        <time>2013-06-04T13:31:43Z</time>
      </trkpt>
      <trkpt lat="44.99381" lon="0.52751">
        <ele>98.857628</ele>
        <time>2013-06-04T13:31:49Z</time>
      </trkpt>
      <trkpt lat="44.99404" lon="0.52754">
        <ele>98.296608</ele>
        <time>2013-06-04T13:31:54Z</time>
      </trkpt>
      <trkpt lat="44.99432" lon="0.52757">
        <ele>98.207306</ele>
        <time>2013-06-04T13:32:00Z</time>
      </trkpt>
      <trkpt lat="44.99458" lon="0.52764">
        <ele>98.658997</ele>
        <time>2013-06-04T13:32:06Z</time>
      </trkpt>
      <trkpt lat="44.99477" lon="0.52769">
        <ele>99.055695</ele>
        <time>2013-06-04T13:32:11Z</time>
      </trkpt>
      <trkpt lat="44.99494" lon="0.52773">
        <ele>99.430672</ele>
        <time>2013-06-04T13:32:16Z</time>
      </trkpt>
      <trkpt lat="44.99518" lon="0.52777">
        <ele>100.640701</ele>
        <time>2013-06-04T13:32:22Z</time>
      </trkpt>
      <trkpt lat="44.99535" lon="0.52782">
        <ele>101.693581</ele>
        <time>2013-06-04T13:32:27Z</time>
      </trkpt>
      <trkpt lat="44.99552" lon="0.52783">
        <ele>102.670029</ele>
        <time>2013-06-04T13:32:32Z</time>
      </trkpt>
      <trkpt lat="44.99568" lon="0.52788">
        <ele>103.623199</ele>
        <time>2013-06-04T13:32:38Z</time>
      </trkpt>
      <trkpt lat="44.99583" lon="0.52789">
        <ele>104.451538</ele>
        <time>2013-06-04T13:32:43Z</time>
      </trkpt>
      <trkpt lat="44.99599" lon="0.52793">
        <ele>105.762009</ele>
        <time>2013-06-04T13:32:48Z</time>
      </trkpt>
      <trkpt lat="44.99609" lon="0.52788">
        <ele>106.424843</ele>
        <time>2013-06-04T13:32:54Z</time>
      </trkpt>
      <trkpt lat="44.99614" lon="0.52771">
        <ele>106.522217</ele>
        <time>2013-06-04T13:32:59Z</time>
      </trkpt>
      <trkpt lat="44.99619" lon="0.52749">
        <ele>106.494743</ele>
        <time>2013-06-04T13:33:05Z</time>
      </trkpt>
      <trkpt lat="44.99611" lon="0.52744">
        <ele>105.843826</ele>
        <time>2013-06-04T13:33:11Z</time>
      </trkpt>
      <trkpt lat="44.99605" lon="0.52754">
        <ele>105.614151</ele>
        <time>2013-06-04T13:33:17Z</time>
      </trkpt>
      <trkpt lat="44.99607" lon="0.52748">
        <ele>105.671593</ele>
        <time>2013-06-04T13:33:32Z</time>
      </trkpt>
      <trkpt lat="44.99612" lon="0.52755">
        <ele>106.143448</ele>
        <time>2013-06-04T13:33:54Z</time>
      </trkpt>
      <trkpt lat="44.99633" lon="0.52749">
        <ele>107.53064</ele>
        <time>2013-06-04T13:34:00Z</time>
      </trkpt>
      <trkpt lat="44.99649" lon="0.5274">
        <ele>108.495583</ele>
        <time>2013-06-04T13:34:05Z</time>
      </trkpt>
      <trkpt lat="44.99669" lon="0.5274">
        <ele>109.97023</ele>
        <time>2013-06-04T13:34:11Z</time>
      </trkpt>
      <trkpt lat="44.99685" lon="0.52738">
        <ele>111.417969</ele>
        <time>2013-06-04T13:34:17Z</time>
      </trkpt>
      <trkpt lat="44.99701" lon="0.52733">
        <ele>112.792702</ele>
        <time>2013-06-04T13:34:23Z</time>
      </trkpt>
      <trkpt lat="44.99711" lon="0.52728">
        <ele>113.593117</ele>
        <time>2013-06-04T13:34:29Z</time>
      </trkpt>
      <trkpt lat="44.99717" lon="0.52719">
        <ele>113.832092</ele>
        <time>2013-06-04T13:34:35Z</time>
      </trkpt>
      <trkpt lat="44.99724" lon="0.52717">
        <ele>114.405121</ele>
        <time>2013-06-04T13:34:40Z</time>
      </trkpt>
      <trkpt lat="44.99737" lon="0.5271">
        <ele>115.404457</ele>
        <time>2013-06-04T13:34:46Z</time>
      </trkpt>
      <trkpt lat="44.99752" lon="0.52703">
        <ele>116.302101</ele>
        <time>2013-06-04T13:34:51Z</time>
      </trkpt>
      <trkpt lat="44.99772" lon="0.52691">
        <ele>115.745422</ele>
        <time>2013-06-04T13:34:57Z</time>
      </trkpt>
      <trkpt lat="44.9979" lon="0.52687">
        <ele>115.48996</ele>
        <time>2013-06-04T13:35:02Z</time>
      </trkpt>
      <trkpt lat="44.99807" lon="0.52689">
        <ele>115.487541</ele>
        <time>2013-06-04T13:35:07Z</time>
      </trkpt>
      <trkpt lat="44.99829" lon="0.52695">
        <ele>115.696144</ele>
        <time>2013-06-04T13:35:13Z</time>
      </trkpt>
      <trkpt lat="44.99864" lon="0.52716">
        <ele>114.662994</ele>
        <time>2013-06-04T13:35:19Z</time>
      </trkpt>
      <trkpt lat="44.999" lon="0.52737">
        <ele>112.852516</ele>
        <time>2013-06-04T13:35:24Z</time>
      </trkpt>
      <trkpt lat="44.9994" lon="0.52747">
        <ele>111.993774</ele>
        <time>2013-06-04T13:35:30Z</time>
      </trkpt>
      <trkpt lat="44.99965" lon="0.52741">
        <ele>112.314774</ele>
        <time>2013-06-04T13:35:35Z</time>
      </trkpt>
      <trkpt lat="44.99984" lon="0.52735">
        <ele>112.904877</ele>
        <time>2013-06-04T13:35:41Z</time>
      </trkpt>
      <trkpt lat="44.99994" lon="0.52734">
        <ele>113.233437</ele>
        <time>2013-06-04T13:35:46Z</time>
      </trkpt>
      <trkpt lat="45.00008" lon="0.52727">
        <ele>114.475143</ele>
        <time>2013-06-04T13:35:52Z</time>
      </trkpt>
      <trkpt lat="45.00022" lon="0.52722">
        <ele>115.904907</ele>
        <time>2013-06-04T13:35:58Z</time>
      </trkpt>
      <trkpt lat="45.00031" lon="0.5272">
        <ele>116.785225</ele>
        <time>2013-06-04T13:36:03Z</time>
      </trkpt>
      <trkpt lat="45.00041" lon="0.52717">
        <ele>117.870949</ele>
        <time>2013-06-04T13:36:09Z</time>
      </trkpt>
      <trkpt lat="45.00059" lon="0.52714">
        <ele>119.740639</ele>
        <time>2013-06-04T13:36:15Z</time>
      </trkpt>
      <trkpt lat="45.0007" lon="0.52712">
        <ele>120.811279</ele>
        <time>2013-06-04T13:36:21Z</time>
      </trkpt>
      <trkpt lat="45.00079" lon="0.52711">
        <ele>121.752708</ele>
        <time>2013-06-04T13:36:26Z</time>
      </trkpt>
      <trkpt lat="45.00088" lon="0.52709">
        <ele>122.363121</ele>
        <time>2013-06-04T13:36:32Z</time>
      </trkpt>
      <trkpt lat="45.00099" lon="0.52708">
        <ele>122.714516</ele>
        <time>2013-06-04T13:36:38Z</time>
      </trkpt>
      <trkpt lat="45.0011" lon="0.52705">
        <ele>123.133194</ele>
        <time>2013-06-04T13:36:44Z</time>
      </trkpt>
      <trkpt lat="45.0012" lon="0.52703">
        <ele>123.534653</ele>
        <time>2013-06-04T13:36:49Z</time>
      </trkpt>
      <trkpt lat="45.00134" lon="0.52699">
        <ele>124.272339</ele>
        <time>2013-06-04T13:36:55Z</time>
      </trkpt>
      <trkpt lat="45.00149" lon="0.52693">
        <ele>125.1064</ele>
        <time>2013-06-04T13:37:01Z</time>
      </trkpt>
      <trkpt lat="45.00166" lon="0.52689">
        <ele>125.841064</ele>
        <time>2013-06-04T13:37:07Z</time>
      </trkpt>
      <trkpt lat="45.00178" lon="0.52685">
        <ele>126.849426</ele>
        <time>2013-06-04T13:37:12Z</time>
      </trkpt>
      <trkpt lat="45.00195" lon="0.5268">
        <ele>128.291412</ele>
        <time>2013-06-04T13:37:17Z</time>
      </trkpt>
      <trkpt lat="45.00212" lon="0.52675">
        <ele>129.847443</ele>
        <time>2013-06-04T13:37:23Z</time>
      </trkpt>
      <trkpt lat="45.00229" lon="0.52673">
        <ele>131.037277</ele>
        <time>2013-06-04T13:37:29Z</time>
      </trkpt>
      <trkpt lat="45.00252" lon="0.52669">
        <ele>132.714035</ele>
        <time>2013-06-04T13:37:35Z</time>
      </trkpt>
      <trkpt lat="45.00274" lon="0.5269">
        <ele>129.505173</ele>
        <time>2013-06-04T13:37:41Z</time>
      </trkpt>
      <trkpt lat="45.00288" lon="0.5268">
        <ele>131.233307</ele>
        <time>2013-06-04T13:37:46Z</time>
      </trkpt>
      <trkpt lat="45.00302" lon="0.5267">
        <ele>133.027924</ele>
        <time>2013-06-04T13:37:51Z</time>
      </trkpt>
      <trkpt lat="45.00317" lon="0.52664">
        <ele>134.155762</ele>
        <time>2013-06-04T13:37:57Z</time>
      </trkpt>
      <trkpt lat="45.00326" lon="0.52669">
        <ele>133.53978</ele>
        <time>2013-06-04T13:38:03Z</time>
      </trkpt>
      <trkpt lat="45.00332" lon="0.52674">
        <ele>132.843674</ele>
        <time>2013-06-04T13:38:08Z</time>
      </trkpt>
      <trkpt lat="45.00343" lon="0.52666">
        <ele>133.632507</ele>
        <time>2013-06-04T13:38:13Z</time>
      </trkpt>
      <trkpt lat="45.00356" lon="0.52668">
        <ele>132.774445</ele>
        <time>2013-06-04T13:38:19Z</time>
      </trkpt>
      <trkpt lat="45.0037" lon="0.52666">
        <ele>132.285065</ele>
        <time>2013-06-04T13:38:25Z</time>
      </trkpt>
      <trkpt lat="45.00379" lon="0.5267">
        <ele>131.497406</ele>
        <time>2013-06-04T13:38:30Z</time>
      </trkpt>
      <trkpt lat="45.00389" lon="0.5268">
        <ele>130.02713</ele>
        <time>2013-06-04T13:38:35Z</time>
      </trkpt>
      <trkpt lat="45.00412" lon="0.52697">
        <ele>127.911469</ele>
        <time>2013-06-04T13:38:41Z</time>
      </trkpt>
      <trkpt lat="45.00434" lon="0.52716">
        <ele>126.699509</ele>
        <time>2013-06-04T13:38:47Z</time>
      </trkpt>
      <trkpt lat="45.00449" lon="0.52735">
        <ele>126.153831</ele>
        <time>2013-06-04T13:38:52Z</time>
      </trkpt>
      <trkpt lat="45.00462" lon="0.5275">
        <ele>126.185013</ele>
        <time>2013-06-04T13:38:57Z</time>
      </trkpt>
      <trkpt lat="45.0047" lon="0.52761">
        <ele>126.486206</ele>
        <time>2013-06-04T13:39:02Z</time>
      </trkpt>
      <trkpt lat="45.00479" lon="0.52782">
        <ele>126.966255</ele>
        <time>2013-06-04T13:39:08Z</time>
      </trkpt>
      <trkpt lat="45.00489" lon="0.528">
        <ele>127.785339</ele>
        <time>2013-06-04T13:39:13Z</time>
      </trkpt>
      <trkpt lat="45.00504" lon="0.52822">
        <ele>128.913803</ele>
        <time>2013-06-04T13:39:19Z</time>
      </trkpt>
      <trkpt lat="45.00516" lon="0.52838">
        <ele>129.220001</ele>
        <time>2013-06-04T13:39:24Z</time>
      </trkpt>
      <trkpt lat="45.00528" lon="0.52861">
        <ele>128.993332</ele>
        <time>2013-06-04T13:39:30Z</time>
      </trkpt>
      <trkpt lat="45.00541" lon="0.52882">
        <ele>129.335724</ele>
        <time>2013-06-04T13:39:35Z</time>
      </trkpt>
      <trkpt lat="45.00559" lon="0.52898">
        <ele>130.604156</ele>
        <time>2013-06-04T13:39:41Z</time>
      </trkpt>
      <trkpt lat="45.00582" lon="0.5291">
        <ele>132.758041</ele>
        <time>2013-06-04T13:39:47Z</time>
      </trkpt>
      <trkpt lat="45.00605" lon="0.52918">
        <ele>132.476944</ele>
        <time>2013-06-04T13:39:53Z</time>
      </trkpt>
      <trkpt lat="45.00619" lon="0.52912">
        <ele>131.918839</ele>
        <time>2013-06-04T13:39:58Z</time>
      </trkpt>
      <trkpt lat="45.0064" lon="0.52906">
        <ele>130.936249</ele>
        <time>2013-06-04T13:40:04Z</time>
      </trkpt>
      <trkpt lat="45.0066" lon="0.52901">
        <ele>129.917526</ele>
        <time>2013-06-04T13:40:09Z</time>
      </trkpt>
      <trkpt lat="45.00669" lon="0.52925">
        <ele>131.055191</ele>
        <time>2013-06-04T13:40:15Z</time>
      </trkpt>
      <trkpt lat="45.00674" lon="0.52947">
        <ele>131.273727</ele>
        <time>2013-06-04T13:40:20Z</time>
      </trkpt>
      <trkpt lat="45.00678" lon="0.52967">
        <ele>131.603424</ele>
        <time>2013-06-04T13:40:26Z</time>
      </trkpt>
      <trkpt lat="45.00691" lon="0.52984">
        <ele>130.972229</ele>
        <time>2013-06-04T13:40:32Z</time>
      </trkpt>
      <trkpt lat="45.00711" lon="0.52999">
        <ele>129.690536</ele>
        <time>2013-06-04T13:40:38Z</time>
      </trkpt>
      <trkpt lat="45.00733" lon="0.53011">
        <ele>128.079163</ele>
        <time>2013-06-04T13:40:44Z</time>
      </trkpt>
      <trkpt lat="45.00766" lon="0.53036">
        <ele>126.492989</ele>
        <time>2013-06-04T13:40:49Z</time>
      </trkpt>
      <trkpt lat="45.00791" lon="0.53063">
        <ele>126.545731</ele>
        <time>2013-06-04T13:40:55Z</time>
      </trkpt>
      <trkpt lat="45.00809" lon="0.53074">
        <ele>126.368011</ele>
        <time>2013-06-04T13:41:00Z</time>
      </trkpt>
      <trkpt lat="45.00824" lon="0.53084">
        <ele>126.484924</ele>
        <time>2013-06-04T13:41:06Z</time>
      </trkpt>
      <trkpt lat="45.00835" lon="0.53092">
        <ele>126.2006</ele>
        <time>2013-06-04T13:41:11Z</time>
      </trkpt>
      <trkpt lat="45.00865" lon="0.53113">
        <ele>123.326385</ele>
        <time>2013-06-04T13:41:16Z</time>
      </trkpt>
      <trkpt lat="45.00896" lon="0.53135">
        <ele>120.601021</ele>
        <time>2013-06-04T13:41:22Z</time>
      </trkpt>
      <trkpt lat="45.00923" lon="0.53159">
        <ele>118.972626</ele>
        <time>2013-06-04T13:41:27Z</time>
      </trkpt>
      <trkpt lat="45.00947" lon="0.53176">
        <ele>117.839722</ele>
        <time>2013-06-04T13:41:32Z</time>
      </trkpt>
      <trkpt lat="45.00964" lon="0.53188">
        <ele>116.919479</ele>
        <time>2013-06-04T13:41:37Z</time>
      </trkpt>
      <trkpt lat="45.00986" lon="0.53206">
        <ele>115.984879</ele>
        <time>2013-06-04T13:41:43Z</time>
      </trkpt>
      <trkpt lat="45.01012" lon="0.53219">
        <ele>114.859261</ele>
        <time>2013-06-04T13:41:48Z</time>
      </trkpt>
      <trkpt lat="45.01035" lon="0.53241">
        <ele>114.542236</ele>
        <time>2013-06-04T13:41:53Z</time>
      </trkpt>
      <trkpt lat="45.01063" lon="0.53262">
        <ele>114.085434</ele>
        <time>2013-06-04T13:41:59Z</time>
      </trkpt>
      <trkpt lat="45.01081" lon="0.53279">
        <ele>114.200668</ele>
        <time>2013-06-04T13:42:04Z</time>
      </trkpt>
      <trkpt lat="45.01104" lon="0.53294">
        <ele>113.652069</ele>
        <time>2013-06-04T13:42:10Z</time>
      </trkpt>
      <trkpt lat="45.01119" lon="0.53306">
        <ele>113.356873</ele>
        <time>2013-06-04T13:42:15Z</time>
      </trkpt>
      <trkpt lat="45.01131" lon="0.53319">
        <ele>113.185463</ele>
        <time>2013-06-04T13:42:21Z</time>
      </trkpt>
      <trkpt lat="45.01146" lon="0.53333">
        <ele>112.745407</ele>
        <time>2013-06-04T13:42:27Z</time>
      </trkpt>
      <trkpt lat="45.01162" lon="0.53352">
        <ele>112.940392</ele>
        <time>2013-06-04T13:42:33Z</time>
      </trkpt>
      <trkpt lat="45.01176" lon="0.5337">
        <ele>113.721878</ele>
        <time>2013-06-04T13:42:38Z</time>
      </trkpt>
      <trkpt lat="45.01192" lon="0.53391">
        <ele>114.630249</ele>
        <time>2013-06-04T13:42:44Z</time>
      </trkpt>
      <trkpt lat="45.01206" lon="0.53404">
        <ele>114.789642</ele>
        <time>2013-06-04T13:42:49Z</time>
      </trkpt>
      <trkpt lat="45.01223" lon="0.53422">
        <ele>114.850754</ele>
        <time>2013-06-04T13:42:55Z</time>
      </trkpt>
      <trkpt lat="45.01241" lon="0.53445">
        <ele>114.802322</ele>
        <time>2013-06-04T13:43:01Z</time>
      </trkpt>
      <trkpt lat="45.01257" lon="0.53463">
        <ele>114.901566</ele>
        <time>2013-06-04T13:43:07Z</time>
      </trkpt>
      <trkpt lat="45.01271" lon="0.53479">
        <ele>114.835617</ele>
        <time>2013-06-04T13:43:13Z</time>
      </trkpt>
      <trkpt lat="45.01285" lon="0.53493">
        <ele>114.648514</ele>
        <time>2013-06-04T13:43:18Z</time>
      </trkpt>
      <trkpt lat="45.01299" lon="0.53514">
        <ele>115.421875</ele>
        <time>2013-06-04T13:43:23Z</time>
      </trkpt>
      <trkpt lat="45.01317" lon="0.53534">
        <ele>115.34758</ele>
        <time>2013-06-04T13:43:29Z</time>
      </trkpt>
      <trkpt lat="45.01333" lon="0.53541">
        <ele>113.967979</ele>
        <time>2013-06-04T13:43:34Z</time>
      </trkpt>
      <trkpt lat="45.01354" lon="0.53545">
        <ele>113.787506</ele>
        <time>2013-06-04T13:43:39Z</time>
      </trkpt>
      <trkpt lat="45.01379" lon="0.53547">
        <ele>113.412582</ele>
        <time>2013-06-04T13:43:45Z</time>
      </trkpt>
      <trkpt lat="45.01395" lon="0.53554">
        <ele>113.3526</ele>
        <time>2013-06-04T13:43:50Z</time>
      </trkpt>
      <trkpt lat="45.01414" lon="0.53563">
        <ele>113.322327</ele>
        <time>2013-06-04T13:43:56Z</time>
      </trkpt>
      <trkpt lat="45.01433" lon="0.5357">
        <ele>113.679588</ele>
        <time>2013-06-04T13:44:01Z</time>
      </trkpt>
      <trkpt lat="45.01454" lon="0.5358">
        <ele>114.292786</ele>
        <time>2013-06-04T13:44:07Z</time>
      </trkpt>
      <trkpt lat="45.01477" lon="0.53587">
        <ele>115.145447</ele>
        <time>2013-06-04T13:44:13Z</time>
      </trkpt>
      <trkpt lat="45.01494" lon="0.53594">
        <ele>116.180206</ele>
        <time>2013-06-04T13:44:18Z</time>
      </trkpt>
      <trkpt lat="45.01511" lon="0.53602">
        <ele>117.12635</ele>
        <time>2013-06-04T13:44:23Z</time>
      </trkpt>
      <trkpt lat="45.01531" lon="0.53614">
        <ele>118.256561</ele>
        <time>2013-06-04T13:44:29Z</time>
      </trkpt>
      <trkpt lat="45.01546" lon="0.53624">
        <ele>119.04892</ele>
        <time>2013-06-04T13:44:34Z</time>
      </trkpt>
      <trkpt lat="45.01559" lon="0.5363">
        <ele>119.419075</ele>
        <time>2013-06-04T13:44:39Z</time>
      </trkpt>
      <trkpt lat="45.01575" lon="0.53639">
        <ele>119.889923</ele>
        <time>2013-06-04T13:44:45Z</time>
      </trkpt>
      <trkpt lat="45.01589" lon="0.53647">
        <ele>120.118591</ele>
        <time>2013-06-04T13:44:50Z</time>
      </trkpt>
      <trkpt lat="45.0161" lon="0.53659">
        <ele>120.145432</ele>
        <time>2013-06-04T13:44:56Z</time>
      </trkpt>
      <trkpt lat="45.0163" lon="0.53669">
        <ele>120.125046</ele>
        <time>2013-06-04T13:45:01Z</time>
      </trkpt>
      <trkpt lat="45.01649" lon="0.5368">
        <ele>120.621254</ele>
        <time>2013-06-04T13:45:07Z</time>
      </trkpt>
      <trkpt lat="45.01664" lon="0.53693">
        <ele>121.336151</ele>
        <time>2013-06-04T13:45:12Z</time>
      </trkpt>
      <trkpt lat="45.01675" lon="0.53705">
        <ele>122.20105</ele>
        <time>2013-06-04T13:45:17Z</time>
      </trkpt>
      <trkpt lat="45.01693" lon="0.53725">
        <ele>123.263847</ele>
        <time>2013-06-04T13:45:23Z</time>
      </trkpt>
      <trkpt lat="45.01707" lon="0.53742">
        <ele>123.835022</ele>
        <time>2013-06-04T13:45:28Z</time>
      </trkpt>
      <trkpt lat="45.01726" lon="0.53761">
        <ele>124.007713</ele>
        <time>2013-06-04T13:45:34Z</time>
      </trkpt>
      <trkpt lat="45.01747" lon="0.5378">
        <ele>123.43515</ele>
        <time>2013-06-04T13:45:40Z</time>
      </trkpt>
      <trkpt lat="45.01767" lon="0.538">
        <ele>123.638313</ele>
        <time>2013-06-04T13:45:46Z</time>
      </trkpt>
      <trkpt lat="45.01782" lon="0.5382">
        <ele>123.760834</ele>
        <time>2013-06-04T13:45:51Z</time>
      </trkpt>
      <trkpt lat="45.01804" lon="0.53844">
        <ele>123.039833</ele>
        <time>2013-06-04T13:45:57Z</time>
      </trkpt>
      <trkpt lat="45.01823" lon="0.53858">
        <ele>121.685059</ele>
        <time>2013-06-04T13:46:02Z</time>
      </trkpt>
      <trkpt lat="45.01835" lon="0.53869">
        <ele>120.784157</ele>
        <time>2013-06-04T13:46:07Z</time>
      </trkpt>
      <trkpt lat="45.01843" lon="0.53879">
        <ele>120.681511</ele>
        <time>2013-06-04T13:46:13Z</time>
      </trkpt>
      <trkpt lat="45.01855" lon="0.53869">
        <ele>119.974335</ele>
        <time>2013-06-04T13:46:19Z</time>
      </trkpt>
      <trkpt lat="45.01868" lon="0.53858">
        <ele>119.202682</ele>
        <time>2013-06-04T13:46:24Z</time>
      </trkpt>
      <trkpt lat="45.01893" lon="0.53847">
        <ele>118.069702</ele>
        <time>2013-06-04T13:46:30Z</time>
      </trkpt>
      <trkpt lat="45.01913" lon="0.53841">
        <ele>117.234062</ele>
        <time>2013-06-04T13:46:36Z</time>
      </trkpt>
      <trkpt lat="45.01924" lon="0.53839">
        <ele>117.610657</ele>
        <time>2013-06-04T13:46:41Z</time>
      </trkpt>
      <trkpt lat="45.0193" lon="0.53838">
        <ele>117.978821</ele>
        <time>2013-06-04T13:47:05Z</time>
      </trkpt>
      <trkpt lat="45.01943" lon="0.53833">
        <ele>118.9086</ele>
        <time>2013-06-04T13:47:11Z</time>
      </trkpt>
      <trkpt lat="45.01961" lon="0.53822">
        <ele>120.558548</ele>
        <time>2013-06-04T13:47:17Z</time>
      </trkpt>
      <trkpt lat="45.01986" lon="0.53817">
        <ele>122.665665</ele>
        <time>2013-06-04T13:47:23Z</time>
      </trkpt>
      <trkpt lat="45.02009" lon="0.53808">
        <ele>124.910484</ele>
        <time>2013-06-04T13:47:29Z</time>
      </trkpt>
      <trkpt lat="45.02024" lon="0.53795">
        <ele>126.464523</ele>
        <time>2013-06-04T13:47:35Z</time>
      </trkpt>
      <trkpt lat="45.02032" lon="0.53786">
        <ele>127.274277</ele>
        <time>2013-06-04T13:47:40Z</time>
      </trkpt>
      <trkpt lat="45.02037" lon="0.53791">
        <ele>127.490784</ele>
        <time>2013-06-04T13:47:46Z</time>
      </trkpt>
      <trkpt lat="45.02036" lon="0.53754">
        <ele>128.578156</ele>
        <time>2013-06-04T14:07:40Z</time>
      </trkpt>
      <trkpt lat="45.02022" lon="0.53795">
        <ele>126.315872</ele>
        <time>2013-06-04T14:07:46Z</time>
      </trkpt>
      <trkpt lat="45.02041" lon="0.53806">
        <ele>127.299423</ele>
        <time>2013-06-04T14:07:51Z</time>
      </trkpt>
      <trkpt lat="45.02039" lon="0.53815">
        <ele>126.866928</ele>
        <time>2013-06-04T14:07:56Z</time>
      </trkpt>
      <trkpt lat="45.02036" lon="0.53824">
        <ele>126.361824</ele>
        <time>2013-06-04T14:08:02Z</time>
      </trkpt>
      <trkpt lat="45.02023" lon="0.53825">
        <ele>125.217995</ele>
        <time>2013-06-04T14:10:05Z</time>
      </trkpt>
      <trkpt lat="45.0204" lon="0.53832">
        <ele>126.40979</ele>
        <time>2013-06-04T14:10:20Z</time>
      </trkpt>
      <trkpt lat="45.02047" lon="0.53856">
        <ele>126.701111</ele>
        <time>2013-06-04T14:10:26Z</time>
      </trkpt>
      <trkpt lat="45.02055" lon="0.53872">
        <ele>127.175926</ele>
        <time>2013-06-04T14:10:31Z</time>
      </trkpt>
      <trkpt lat="45.02069" lon="0.53912">
        <ele>127.810852</ele>
        <time>2013-06-04T14:10:37Z</time>
      </trkpt>
      <trkpt lat="45.02088" lon="0.53944">
        <ele>128.64032</ele>
        <time>2013-06-04T14:10:42Z</time>
      </trkpt>
      <trkpt lat="45.02108" lon="0.53974">
        <ele>129.418442</ele>
        <time>2013-06-04T14:10:48Z</time>
      </trkpt>
      <trkpt lat="45.02122" lon="0.54003">
        <ele>129.713623</ele>
        <time>2013-06-04T14:10:54Z</time>
      </trkpt>
      <trkpt lat="45.02136" lon="0.54035">
        <ele>129.970596</ele>
        <time>2013-06-04T14:10:59Z</time>
      </trkpt>
      <trkpt lat="45.02155" lon="0.54065">
        <ele>130.590103</ele>
        <time>2013-06-04T14:11:05Z</time>
      </trkpt>
      <trkpt lat="45.02172" lon="0.54101">
        <ele>131.31221</ele>
        <time>2013-06-04T14:11:11Z</time>
      </trkpt>
      <trkpt lat="45.02188" lon="0.54135">
        <ele>131.967926</ele>
        <time>2013-06-04T14:11:17Z</time>
      </trkpt>
      <trkpt lat="45.02201" lon="0.54165">
        <ele>132.243439</ele>
        <time>2013-06-04T14:11:22Z</time>
      </trkpt>
      <trkpt lat="45.02212" lon="0.5419">
        <ele>132.605377</ele>
        <time>2013-06-04T14:11:27Z</time>
      </trkpt>
      <trkpt lat="45.02222" lon="0.54214">
        <ele>132.81105</ele>
        <time>2013-06-04T14:11:32Z</time>
      </trkpt>
      <trkpt lat="45.02228" lon="0.54243">
        <ele>132.779068</ele>
        <time>2013-06-04T14:11:38Z</time>
      </trkpt>
      <trkpt lat="45.02241" lon="0.54225">
        <ele>133.132355</ele>
        <time>2013-06-04T14:11:44Z</time>
      </trkpt>
      <trkpt lat="45.02257" lon="0.54199">
        <ele>133.834473</ele>
        <time>2013-06-04T14:11:50Z</time>
      </trkpt>
      <trkpt lat="45.02267" lon="0.54181">
        <ele>134.409805</ele>
        <time>2013-06-04T14:11:56Z</time>
      </trkpt>
      <trkpt lat="45.02273" lon="0.54176">
        <ele>134.666107</ele>
        <time>2013-06-04T14:12:06Z</time>
      </trkpt>
      <trkpt lat="45.02284" lon="0.54164">
        <ele>135.259674</ele>
        <time>2013-06-04T14:12:11Z</time>
      </trkpt>
      <trkpt lat="45.02299" lon="0.54149">
        <ele>136.058334</ele>
        <time>2013-06-04T14:12:17Z</time>
      </trkpt>
      <trkpt lat="45.02307" lon="0.54135">
        <ele>136.571152</ele>
        <time>2013-06-04T14:12:22Z</time>
      </trkpt>
      <trkpt lat="45.02311" lon="0.54123">
        <ele>136.849228</ele>
        <time>2013-06-04T14:12:28Z</time>
      </trkpt>
      <trkpt lat="45.02304" lon="0.54121">
        <ele>136.679047</ele>
        <time>2013-06-04T14:12:33Z</time>
      </trkpt>
    </trkseg>
  </trk>
</gpx>